<?xml version="1.0" encoding="UTF-8" standalone="no" ?>
<gpx xmlns="http://www.topografix.com/GPX/1/1" xmlns:xsi="http://www.w3.org/2001/XMLSchema-instance" xsi:schemaLocation="http://www.topografix.com/GPX/1/1 http://www.topografix.com/GPX/1/1/gpx.xsd" version="1.1" creator="VisuGPX - https://www.visugpx.com">
  <metadata>
    <name>10 km avec Ténébra, Géricault et Néo</name>
    <desc><![CDATA[Première sortie avec 2 de mes enfants ensembles ! Des chevaux bien actifs et de nouveaux chemins !]]></desc>
  </metadata>
  <trk>
    <name><![CDATA[Untitled]]></name>
    <trkseg>
      <trkpt lat="48.70498" lon="1.75631">
        <ele>184.39999389648</ele>
        <time>2014-03-08T15:03:04.000Z</time>
      </trkpt>
      <trkpt lat="48.70502" lon="1.75632">
        <ele>184.39999389648</ele>
        <time>2014-03-08T15:03:05.000Z</time>
      </trkpt>
      <trkpt lat="48.70575" lon="1.75649">
        <ele>184.60000610352</ele>
        <time>2014-03-08T15:03:14.000Z</time>
      </trkpt>
      <trkpt lat="48.70594" lon="1.75652">
        <ele>183.39999389648</ele>
        <time>2014-03-08T15:03:17.000Z</time>
      </trkpt>
      <trkpt lat="48.70593" lon="1.75644">
        <ele>183.39999389648</ele>
        <time>2014-03-08T15:03:22.000Z</time>
      </trkpt>
      <trkpt lat="48.70588" lon="1.75642">
        <ele>183.80000305176</ele>
        <time>2014-03-08T15:03:26.000Z</time>
      </trkpt>
      <trkpt lat="48.70582" lon="1.75642">
        <ele>184.39999389648</ele>
        <time>2014-03-08T15:03:30.000Z</time>
      </trkpt>
      <trkpt lat="48.70584" lon="1.75638">
        <ele>184.19999694824</ele>
        <time>2014-03-08T15:03:34.000Z</time>
      </trkpt>
      <trkpt lat="48.70583" lon="1.7563">
        <ele>184.19999694824</ele>
        <time>2014-03-08T15:03:40.000Z</time>
      </trkpt>
      <trkpt lat="48.70574" lon="1.75624">
        <ele>184</ele>
        <time>2014-03-08T15:03:45.000Z</time>
      </trkpt>
      <trkpt lat="48.70572" lon="1.75617">
        <ele>184</ele>
        <time>2014-03-08T15:03:51.000Z</time>
      </trkpt>
      <trkpt lat="48.70574" lon="1.75612">
        <ele>183.80000305176</ele>
        <time>2014-03-08T15:03:55.000Z</time>
      </trkpt>
      <trkpt lat="48.70573" lon="1.75605">
        <ele>183.60000610352</ele>
        <time>2014-03-08T15:03:59.000Z</time>
      </trkpt>
      <trkpt lat="48.70566" lon="1.75596">
        <ele>183.60000610352</ele>
        <time>2014-03-08T15:04:05.000Z</time>
      </trkpt>
      <trkpt lat="48.70565" lon="1.75595">
        <ele>183.60000610352</ele>
        <time>2014-03-08T15:04:06.000Z</time>
      </trkpt>
      <trkpt lat="48.70563" lon="1.75588">
        <ele>183.60000610352</ele>
        <time>2014-03-08T15:04:11.000Z</time>
      </trkpt>
      <trkpt lat="48.70559" lon="1.75582">
        <ele>183.39999389648</ele>
        <time>2014-03-08T15:04:16.000Z</time>
      </trkpt>
      <trkpt lat="48.7056" lon="1.7558">
        <ele>183.19999694824</ele>
        <time>2014-03-08T15:04:19.000Z</time>
      </trkpt>
      <trkpt lat="48.70551" lon="1.75572">
        <ele>182.80000305176</ele>
        <time>2014-03-08T15:04:28.000Z</time>
      </trkpt>
      <trkpt lat="48.7055" lon="1.75571">
        <ele>182.80000305176</ele>
        <time>2014-03-08T15:04:29.000Z</time>
      </trkpt>
      <trkpt lat="48.70546" lon="1.75569">
        <ele>182.80000305176</ele>
        <time>2014-03-08T15:04:31.000Z</time>
      </trkpt>
      <trkpt lat="48.7054" lon="1.7556">
        <ele>182.19999694824</ele>
        <time>2014-03-08T15:04:36.000Z</time>
      </trkpt>
      <trkpt lat="48.70534" lon="1.75554">
        <ele>182</ele>
        <time>2014-03-08T15:04:44.000Z</time>
      </trkpt>
      <trkpt lat="48.70534" lon="1.75549">
        <ele>181.60000610352</ele>
        <time>2014-03-08T15:04:49.000Z</time>
      </trkpt>
      <trkpt lat="48.70527" lon="1.75544">
        <ele>181.80000305176</ele>
        <time>2014-03-08T15:04:53.000Z</time>
      </trkpt>
      <trkpt lat="48.70524" lon="1.75543">
        <ele>181.80000305176</ele>
        <time>2014-03-08T15:04:57.000Z</time>
      </trkpt>
      <trkpt lat="48.70532" lon="1.75537">
        <ele>181</ele>
        <time>2014-03-08T15:05:02.000Z</time>
      </trkpt>
      <trkpt lat="48.70533" lon="1.75535">
        <ele>180.80000305176</ele>
        <time>2014-03-08T15:05:04.000Z</time>
      </trkpt>
      <trkpt lat="48.70524" lon="1.75527">
        <ele>180.80000305176</ele>
        <time>2014-03-08T15:05:12.000Z</time>
      </trkpt>
      <trkpt lat="48.70521" lon="1.75523">
        <ele>180.60000610352</ele>
        <time>2014-03-08T15:05:16.000Z</time>
      </trkpt>
      <trkpt lat="48.70517" lon="1.75518">
        <ele>180.80000305176</ele>
        <time>2014-03-08T15:05:19.000Z</time>
      </trkpt>
      <trkpt lat="48.70513" lon="1.75509">
        <ele>180.39999389648</ele>
        <time>2014-03-08T15:05:24.000Z</time>
      </trkpt>
      <trkpt lat="48.70503" lon="1.75508">
        <ele>181.19999694824</ele>
        <time>2014-03-08T15:05:31.000Z</time>
      </trkpt>
      <trkpt lat="48.70495" lon="1.75501">
        <ele>181.19999694824</ele>
        <time>2014-03-08T15:05:39.000Z</time>
      </trkpt>
      <trkpt lat="48.7049" lon="1.75496">
        <ele>181.19999694824</ele>
        <time>2014-03-08T15:05:45.000Z</time>
      </trkpt>
      <trkpt lat="48.70488" lon="1.75492">
        <ele>181</ele>
        <time>2014-03-08T15:05:48.000Z</time>
      </trkpt>
      <trkpt lat="48.70481" lon="1.75482">
        <ele>180.80000305176</ele>
        <time>2014-03-08T15:05:54.000Z</time>
      </trkpt>
      <trkpt lat="48.70479" lon="1.75477">
        <ele>180.60000610352</ele>
        <time>2014-03-08T15:05:58.000Z</time>
      </trkpt>
      <trkpt lat="48.70474" lon="1.7547">
        <ele>180.39999389648</ele>
        <time>2014-03-08T15:06:07.000Z</time>
      </trkpt>
      <trkpt lat="48.70468" lon="1.75465">
        <ele>180.60000610352</ele>
        <time>2014-03-08T15:06:11.000Z</time>
      </trkpt>
      <trkpt lat="48.70462" lon="1.75463">
        <ele>180.80000305176</ele>
        <time>2014-03-08T15:06:15.000Z</time>
      </trkpt>
      <trkpt lat="48.7046" lon="1.75459">
        <ele>180.80000305176</ele>
        <time>2014-03-08T15:06:18.000Z</time>
      </trkpt>
      <trkpt lat="48.7045" lon="1.75453">
        <ele>181</ele>
        <time>2014-03-08T15:06:25.000Z</time>
      </trkpt>
      <trkpt lat="48.70444" lon="1.75452">
        <ele>181.39999389648</ele>
        <time>2014-03-08T15:06:29.000Z</time>
      </trkpt>
      <trkpt lat="48.70437" lon="1.7545">
        <ele>181.60000610352</ele>
        <time>2014-03-08T15:06:34.000Z</time>
      </trkpt>
      <trkpt lat="48.70431" lon="1.75445">
        <ele>181.80000305176</ele>
        <time>2014-03-08T15:06:40.000Z</time>
      </trkpt>
      <trkpt lat="48.70426" lon="1.75438">
        <ele>182</ele>
        <time>2014-03-08T15:06:46.000Z</time>
      </trkpt>
      <trkpt lat="48.70419" lon="1.75434">
        <ele>182.19999694824</ele>
        <time>2014-03-08T15:06:52.000Z</time>
      </trkpt>
      <trkpt lat="48.70419" lon="1.75433">
        <ele>182.19999694824</ele>
        <time>2014-03-08T15:06:53.000Z</time>
      </trkpt>
      <trkpt lat="48.70418" lon="1.75431">
        <ele>182.19999694824</ele>
        <time>2014-03-08T15:06:55.000Z</time>
      </trkpt>
      <trkpt lat="48.70412" lon="1.75427">
        <ele>182.19999694824</ele>
        <time>2014-03-08T15:07:01.000Z</time>
      </trkpt>
      <trkpt lat="48.70407" lon="1.75422">
        <ele>182</ele>
        <time>2014-03-08T15:07:06.000Z</time>
      </trkpt>
      <trkpt lat="48.70401" lon="1.75418">
        <ele>181.80000305176</ele>
        <time>2014-03-08T15:07:10.000Z</time>
      </trkpt>
      <trkpt lat="48.70392" lon="1.75419">
        <ele>181.80000305176</ele>
        <time>2014-03-08T15:07:16.000Z</time>
      </trkpt>
      <trkpt lat="48.70386" lon="1.7542">
        <ele>181.60000610352</ele>
        <time>2014-03-08T15:07:21.000Z</time>
      </trkpt>
      <trkpt lat="48.70385" lon="1.75419">
        <ele>181.60000610352</ele>
        <time>2014-03-08T15:07:22.000Z</time>
      </trkpt>
      <trkpt lat="48.70384" lon="1.75411">
        <ele>181.39999389648</ele>
        <time>2014-03-08T15:07:28.000Z</time>
      </trkpt>
      <trkpt lat="48.70378" lon="1.754">
        <ele>181</ele>
        <time>2014-03-08T15:07:37.000Z</time>
      </trkpt>
      <trkpt lat="48.70374" lon="1.754">
        <ele>181.19999694824</ele>
        <time>2014-03-08T15:07:43.000Z</time>
      </trkpt>
      <trkpt lat="48.70369" lon="1.75396">
        <ele>181</ele>
        <time>2014-03-08T15:07:47.000Z</time>
      </trkpt>
      <trkpt lat="48.70364" lon="1.75391">
        <ele>181</ele>
        <time>2014-03-08T15:07:52.000Z</time>
      </trkpt>
      <trkpt lat="48.70357" lon="1.75388">
        <ele>180.80000305176</ele>
        <time>2014-03-08T15:07:58.000Z</time>
      </trkpt>
      <trkpt lat="48.70353" lon="1.75383">
        <ele>180.80000305176</ele>
        <time>2014-03-08T15:08:03.000Z</time>
      </trkpt>
      <trkpt lat="48.70348" lon="1.75374">
        <ele>180.80000305176</ele>
        <time>2014-03-08T15:08:10.000Z</time>
      </trkpt>
      <trkpt lat="48.70346" lon="1.75368">
        <ele>180.80000305176</ele>
        <time>2014-03-08T15:08:16.000Z</time>
      </trkpt>
      <trkpt lat="48.70344" lon="1.75367">
        <ele>180.80000305176</ele>
        <time>2014-03-08T15:08:18.000Z</time>
      </trkpt>
      <trkpt lat="48.70336" lon="1.75359">
        <ele>181</ele>
        <time>2014-03-08T15:08:23.000Z</time>
      </trkpt>
      <trkpt lat="48.70327" lon="1.75353">
        <ele>180.80000305176</ele>
        <time>2014-03-08T15:08:28.000Z</time>
      </trkpt>
      <trkpt lat="48.70317" lon="1.75352">
        <ele>180.60000610352</ele>
        <time>2014-03-08T15:08:33.000Z</time>
      </trkpt>
      <trkpt lat="48.70313" lon="1.75348">
        <ele>180.39999389648</ele>
        <time>2014-03-08T15:08:36.000Z</time>
      </trkpt>
      <trkpt lat="48.70303" lon="1.75335">
        <ele>180.19999694824</ele>
        <time>2014-03-08T15:08:42.000Z</time>
      </trkpt>
      <trkpt lat="48.70302" lon="1.75335">
        <ele>180.19999694824</ele>
        <time>2014-03-08T15:08:48.000Z</time>
      </trkpt>
      <trkpt lat="48.70298" lon="1.75334">
        <ele>180.19999694824</ele>
        <time>2014-03-08T15:08:56.000Z</time>
      </trkpt>
      <trkpt lat="48.70298" lon="1.75331">
        <ele>180.19999694824</ele>
        <time>2014-03-08T15:09:06.000Z</time>
      </trkpt>
      <trkpt lat="48.70302" lon="1.75319">
        <ele>180.39999389648</ele>
        <time>2014-03-08T15:09:19.000Z</time>
      </trkpt>
      <trkpt lat="48.70302" lon="1.7532">
        <ele>180.39999389648</ele>
        <time>2014-03-08T15:09:24.000Z</time>
      </trkpt>
      <trkpt lat="48.70301" lon="1.75321">
        <ele>180.39999389648</ele>
        <time>2014-03-08T15:09:32.000Z</time>
      </trkpt>
      <trkpt lat="48.70302" lon="1.75321">
        <ele>180.39999389648</ele>
        <time>2014-03-08T15:09:33.000Z</time>
      </trkpt>
      <trkpt lat="48.70312" lon="1.75315">
        <ele>180.80000305176</ele>
        <time>2014-03-08T15:10:10.000Z</time>
      </trkpt>
      <trkpt lat="48.70313" lon="1.75317">
        <ele>180.80000305176</ele>
        <time>2014-03-08T15:10:11.000Z</time>
      </trkpt>
      <trkpt lat="48.70314" lon="1.75323">
        <ele>180.60000610352</ele>
        <time>2014-03-08T15:10:15.000Z</time>
      </trkpt>
      <trkpt lat="48.70311" lon="1.75319">
        <ele>180.60000610352</ele>
        <time>2014-03-08T15:10:32.000Z</time>
      </trkpt>
      <trkpt lat="48.70314" lon="1.75317">
        <ele>180.80000305176</ele>
        <time>2014-03-08T15:10:38.000Z</time>
      </trkpt>
      <trkpt lat="48.70319" lon="1.75322">
        <ele>180.80000305176</ele>
        <time>2014-03-08T15:10:47.000Z</time>
      </trkpt>
      <trkpt lat="48.70314" lon="1.75322">
        <ele>180.60000610352</ele>
        <time>2014-03-08T15:10:54.000Z</time>
      </trkpt>
      <trkpt lat="48.70294" lon="1.75297">
        <ele>180.39999389648</ele>
        <time>2014-03-08T15:12:47.000Z</time>
      </trkpt>
      <trkpt lat="48.70287" lon="1.75291">
        <ele>180.39999389648</ele>
        <time>2014-03-08T15:12:52.000Z</time>
      </trkpt>
      <trkpt lat="48.70284" lon="1.75291">
        <ele>180.39999389648</ele>
        <time>2014-03-08T15:12:54.000Z</time>
      </trkpt>
      <trkpt lat="48.70278" lon="1.75291">
        <ele>180.19999694824</ele>
        <time>2014-03-08T15:12:58.000Z</time>
      </trkpt>
      <trkpt lat="48.70269" lon="1.75283">
        <ele>180</ele>
        <time>2014-03-08T15:13:06.000Z</time>
      </trkpt>
      <trkpt lat="48.70265" lon="1.75277">
        <ele>180</ele>
        <time>2014-03-08T15:13:12.000Z</time>
      </trkpt>
      <trkpt lat="48.70263" lon="1.75277">
        <ele>180</ele>
        <time>2014-03-08T15:13:13.000Z</time>
      </trkpt>
      <trkpt lat="48.70259" lon="1.75274">
        <ele>180</ele>
        <time>2014-03-08T15:13:17.000Z</time>
      </trkpt>
      <trkpt lat="48.70253" lon="1.75269">
        <ele>179.80000305176</ele>
        <time>2014-03-08T15:13:22.000Z</time>
      </trkpt>
      <trkpt lat="48.70252" lon="1.75265">
        <ele>179.80000305176</ele>
        <time>2014-03-08T15:13:24.000Z</time>
      </trkpt>
      <trkpt lat="48.7025" lon="1.75259">
        <ele>180</ele>
        <time>2014-03-08T15:13:28.000Z</time>
      </trkpt>
      <trkpt lat="48.70245" lon="1.75251">
        <ele>179.80000305176</ele>
        <time>2014-03-08T15:13:33.000Z</time>
      </trkpt>
      <trkpt lat="48.70237" lon="1.75249">
        <ele>179.39999389648</ele>
        <time>2014-03-08T15:13:39.000Z</time>
      </trkpt>
      <trkpt lat="48.70228" lon="1.75242">
        <ele>178.80000305176</ele>
        <time>2014-03-08T15:13:45.000Z</time>
      </trkpt>
      <trkpt lat="48.70218" lon="1.7524">
        <ele>178.39999389648</ele>
        <time>2014-03-08T15:13:51.000Z</time>
      </trkpt>
      <trkpt lat="48.70208" lon="1.75241">
        <ele>178</ele>
        <time>2014-03-08T15:13:59.000Z</time>
      </trkpt>
      <trkpt lat="48.702" lon="1.75238">
        <ele>177.60000610352</ele>
        <time>2014-03-08T15:14:05.000Z</time>
      </trkpt>
      <trkpt lat="48.70197" lon="1.75223">
        <ele>177.39999389648</ele>
        <time>2014-03-08T15:14:11.000Z</time>
      </trkpt>
      <trkpt lat="48.70195" lon="1.75217">
        <ele>177.19999694824</ele>
        <time>2014-03-08T15:14:13.000Z</time>
      </trkpt>
      <trkpt lat="48.70195" lon="1.75199">
        <ele>177.19999694824</ele>
        <time>2014-03-08T15:14:20.000Z</time>
      </trkpt>
      <trkpt lat="48.70196" lon="1.7519">
        <ele>177.19999694824</ele>
        <time>2014-03-08T15:14:24.000Z</time>
      </trkpt>
      <trkpt lat="48.70203" lon="1.75186">
        <ele>177.39999389648</ele>
        <time>2014-03-08T15:14:29.000Z</time>
      </trkpt>
      <trkpt lat="48.70205" lon="1.75187">
        <ele>177.60000610352</ele>
        <time>2014-03-08T15:14:31.000Z</time>
      </trkpt>
      <trkpt lat="48.70211" lon="1.75181">
        <ele>177.60000610352</ele>
        <time>2014-03-08T15:14:35.000Z</time>
      </trkpt>
      <trkpt lat="48.70218" lon="1.75167">
        <ele>177.80000305176</ele>
        <time>2014-03-08T15:14:42.000Z</time>
      </trkpt>
      <trkpt lat="48.70218" lon="1.7516">
        <ele>178</ele>
        <time>2014-03-08T15:14:46.000Z</time>
      </trkpt>
      <trkpt lat="48.70215" lon="1.75153">
        <ele>177.80000305176</ele>
        <time>2014-03-08T15:14:52.000Z</time>
      </trkpt>
      <trkpt lat="48.70212" lon="1.75146">
        <ele>177.80000305176</ele>
        <time>2014-03-08T15:14:56.000Z</time>
      </trkpt>
      <trkpt lat="48.70212" lon="1.75131">
        <ele>178</ele>
        <time>2014-03-08T15:15:02.000Z</time>
      </trkpt>
      <trkpt lat="48.70211" lon="1.75129">
        <ele>178</ele>
        <time>2014-03-08T15:15:03.000Z</time>
      </trkpt>
      <trkpt lat="48.70212" lon="1.75112">
        <ele>178.19999694824</ele>
        <time>2014-03-08T15:15:11.000Z</time>
      </trkpt>
      <trkpt lat="48.70216" lon="1.75102">
        <ele>178.39999389648</ele>
        <time>2014-03-08T15:15:17.000Z</time>
      </trkpt>
      <trkpt lat="48.70219" lon="1.75089">
        <ele>178.60000610352</ele>
        <time>2014-03-08T15:15:24.000Z</time>
      </trkpt>
      <trkpt lat="48.70221" lon="1.75079">
        <ele>178.60000610352</ele>
        <time>2014-03-08T15:15:30.000Z</time>
      </trkpt>
      <trkpt lat="48.70224" lon="1.75066">
        <ele>178.39999389648</ele>
        <time>2014-03-08T15:15:37.000Z</time>
      </trkpt>
      <trkpt lat="48.70225" lon="1.75053">
        <ele>178.19999694824</ele>
        <time>2014-03-08T15:15:44.000Z</time>
      </trkpt>
      <trkpt lat="48.70226" lon="1.75034">
        <ele>177.80000305176</ele>
        <time>2014-03-08T15:15:52.000Z</time>
      </trkpt>
      <trkpt lat="48.70228" lon="1.75021">
        <ele>177.60000610352</ele>
        <time>2014-03-08T15:15:59.000Z</time>
      </trkpt>
      <trkpt lat="48.70234" lon="1.75009">
        <ele>177.39999389648</ele>
        <time>2014-03-08T15:16:06.000Z</time>
      </trkpt>
      <trkpt lat="48.70239" lon="1.74993">
        <ele>176.80000305176</ele>
        <time>2014-03-08T15:16:15.000Z</time>
      </trkpt>
      <trkpt lat="48.70241" lon="1.74977">
        <ele>176</ele>
        <time>2014-03-08T15:16:23.000Z</time>
      </trkpt>
      <trkpt lat="48.70243" lon="1.74963">
        <ele>175.39999389648</ele>
        <time>2014-03-08T15:16:30.000Z</time>
      </trkpt>
      <trkpt lat="48.70243" lon="1.7495">
        <ele>174.80000305176</ele>
        <time>2014-03-08T15:16:35.000Z</time>
      </trkpt>
      <trkpt lat="48.70242" lon="1.74929">
        <ele>173.80000305176</ele>
        <time>2014-03-08T15:16:43.000Z</time>
      </trkpt>
      <trkpt lat="48.7024" lon="1.74924">
        <ele>173.80000305176</ele>
        <time>2014-03-08T15:16:45.000Z</time>
      </trkpt>
      <trkpt lat="48.70242" lon="1.74912">
        <ele>173.19999694824</ele>
        <time>2014-03-08T15:16:51.000Z</time>
      </trkpt>
      <trkpt lat="48.70246" lon="1.74897">
        <ele>173.19999694824</ele>
        <time>2014-03-08T15:16:58.000Z</time>
      </trkpt>
      <trkpt lat="48.7025" lon="1.74892">
        <ele>173</ele>
        <time>2014-03-08T15:17:01.000Z</time>
      </trkpt>
      <trkpt lat="48.70253" lon="1.74878">
        <ele>172.80000305176</ele>
        <time>2014-03-08T15:17:08.000Z</time>
      </trkpt>
      <trkpt lat="48.70253" lon="1.74876">
        <ele>172.80000305176</ele>
        <time>2014-03-08T15:17:09.000Z</time>
      </trkpt>
      <trkpt lat="48.70254" lon="1.74861">
        <ele>172.80000305176</ele>
        <time>2014-03-08T15:17:17.000Z</time>
      </trkpt>
      <trkpt lat="48.70255" lon="1.74846">
        <ele>172.80000305176</ele>
        <time>2014-03-08T15:17:24.000Z</time>
      </trkpt>
      <trkpt lat="48.7026" lon="1.74833">
        <ele>172.39999389648</ele>
        <time>2014-03-08T15:17:31.000Z</time>
      </trkpt>
      <trkpt lat="48.70262" lon="1.74812">
        <ele>172</ele>
        <time>2014-03-08T15:17:40.000Z</time>
      </trkpt>
      <trkpt lat="48.70258" lon="1.74793">
        <ele>171.60000610352</ele>
        <time>2014-03-08T15:17:47.000Z</time>
      </trkpt>
      <trkpt lat="48.70261" lon="1.74785">
        <ele>171.39999389648</ele>
        <time>2014-03-08T15:17:52.000Z</time>
      </trkpt>
      <trkpt lat="48.70265" lon="1.74778">
        <ele>171</ele>
        <time>2014-03-08T15:17:58.000Z</time>
      </trkpt>
      <trkpt lat="48.70268" lon="1.74764">
        <ele>170.60000610352</ele>
        <time>2014-03-08T15:18:05.000Z</time>
      </trkpt>
      <trkpt lat="48.70268" lon="1.74751">
        <ele>170.39999389648</ele>
        <time>2014-03-08T15:18:11.000Z</time>
      </trkpt>
      <trkpt lat="48.70269" lon="1.74743">
        <ele>170.19999694824</ele>
        <time>2014-03-08T15:18:14.000Z</time>
      </trkpt>
      <trkpt lat="48.70271" lon="1.74726">
        <ele>169.60000610352</ele>
        <time>2014-03-08T15:18:21.000Z</time>
      </trkpt>
      <trkpt lat="48.70271" lon="1.74719">
        <ele>169.39999389648</ele>
        <time>2014-03-08T15:18:24.000Z</time>
      </trkpt>
      <trkpt lat="48.70273" lon="1.74696">
        <ele>169</ele>
        <time>2014-03-08T15:18:34.000Z</time>
      </trkpt>
      <trkpt lat="48.70277" lon="1.74685">
        <ele>168.60000610352</ele>
        <time>2014-03-08T15:18:40.000Z</time>
      </trkpt>
      <trkpt lat="48.70279" lon="1.74677">
        <ele>168.60000610352</ele>
        <time>2014-03-08T15:18:44.000Z</time>
      </trkpt>
      <trkpt lat="48.70282" lon="1.7466">
        <ele>168.60000610352</ele>
        <time>2014-03-08T15:18:53.000Z</time>
      </trkpt>
      <trkpt lat="48.70295" lon="1.74655">
        <ele>169</ele>
        <time>2014-03-08T15:19:02.000Z</time>
      </trkpt>
      <trkpt lat="48.70303" lon="1.74649">
        <ele>169.19999694824</ele>
        <time>2014-03-08T15:19:09.000Z</time>
      </trkpt>
      <trkpt lat="48.70306" lon="1.74639">
        <ele>169.60000610352</ele>
        <time>2014-03-08T15:19:15.000Z</time>
      </trkpt>
      <trkpt lat="48.70305" lon="1.74625">
        <ele>170.19999694824</ele>
        <time>2014-03-08T15:19:23.000Z</time>
      </trkpt>
      <trkpt lat="48.70303" lon="1.74615">
        <ele>170.39999389648</ele>
        <time>2014-03-08T15:19:28.000Z</time>
      </trkpt>
      <trkpt lat="48.70302" lon="1.74608">
        <ele>170.60000610352</ele>
        <time>2014-03-08T15:19:32.000Z</time>
      </trkpt>
      <trkpt lat="48.703" lon="1.74592">
        <ele>171.19999694824</ele>
        <time>2014-03-08T15:19:40.000Z</time>
      </trkpt>
      <trkpt lat="48.703" lon="1.74578">
        <ele>171.39999389648</ele>
        <time>2014-03-08T15:19:47.000Z</time>
      </trkpt>
      <trkpt lat="48.70299" lon="1.74575">
        <ele>171.60000610352</ele>
        <time>2014-03-08T15:19:49.000Z</time>
      </trkpt>
      <trkpt lat="48.70293" lon="1.74559">
        <ele>171.60000610352</ele>
        <time>2014-03-08T15:19:58.000Z</time>
      </trkpt>
      <trkpt lat="48.70289" lon="1.74549">
        <ele>171.80000305176</ele>
        <time>2014-03-08T15:20:04.000Z</time>
      </trkpt>
      <trkpt lat="48.70286" lon="1.74546">
        <ele>171.80000305176</ele>
        <time>2014-03-08T15:20:08.000Z</time>
      </trkpt>
      <trkpt lat="48.70282" lon="1.74529">
        <ele>172.19999694824</ele>
        <time>2014-03-08T15:20:15.000Z</time>
      </trkpt>
      <trkpt lat="48.70281" lon="1.74516">
        <ele>172.60000610352</ele>
        <time>2014-03-08T15:20:22.000Z</time>
      </trkpt>
      <trkpt lat="48.7028" lon="1.7451">
        <ele>172.80000305176</ele>
        <time>2014-03-08T15:20:26.000Z</time>
      </trkpt>
      <trkpt lat="48.70278" lon="1.74503">
        <ele>172.80000305176</ele>
        <time>2014-03-08T15:20:30.000Z</time>
      </trkpt>
      <trkpt lat="48.70276" lon="1.7449">
        <ele>173.19999694824</ele>
        <time>2014-03-08T15:20:36.000Z</time>
      </trkpt>
      <trkpt lat="48.70276" lon="1.7448">
        <ele>173.39999389648</ele>
        <time>2014-03-08T15:20:42.000Z</time>
      </trkpt>
      <trkpt lat="48.70277" lon="1.7447">
        <ele>173.80000305176</ele>
        <time>2014-03-08T15:20:49.000Z</time>
      </trkpt>
      <trkpt lat="48.70277" lon="1.74467">
        <ele>173.80000305176</ele>
        <time>2014-03-08T15:20:51.000Z</time>
      </trkpt>
      <trkpt lat="48.70279" lon="1.74462">
        <ele>174</ele>
        <time>2014-03-08T15:20:54.000Z</time>
      </trkpt>
      <trkpt lat="48.70279" lon="1.74458">
        <ele>174</ele>
        <time>2014-03-08T15:20:56.000Z</time>
      </trkpt>
      <trkpt lat="48.70282" lon="1.74455">
        <ele>174</ele>
        <time>2014-03-08T15:21:00.000Z</time>
      </trkpt>
      <trkpt lat="48.70284" lon="1.74449">
        <ele>174.19999694824</ele>
        <time>2014-03-08T15:21:04.000Z</time>
      </trkpt>
      <trkpt lat="48.70284" lon="1.74441">
        <ele>174.39999389648</ele>
        <time>2014-03-08T15:21:08.000Z</time>
      </trkpt>
      <trkpt lat="48.70282" lon="1.7443">
        <ele>174.60000610352</ele>
        <time>2014-03-08T15:21:14.000Z</time>
      </trkpt>
      <trkpt lat="48.70279" lon="1.74419">
        <ele>175</ele>
        <time>2014-03-08T15:21:19.000Z</time>
      </trkpt>
      <trkpt lat="48.70277" lon="1.74409">
        <ele>175.39999389648</ele>
        <time>2014-03-08T15:21:25.000Z</time>
      </trkpt>
      <trkpt lat="48.70278" lon="1.74402">
        <ele>175.60000610352</ele>
        <time>2014-03-08T15:21:29.000Z</time>
      </trkpt>
      <trkpt lat="48.70281" lon="1.74393">
        <ele>176.19999694824</ele>
        <time>2014-03-08T15:21:33.000Z</time>
      </trkpt>
      <trkpt lat="48.70281" lon="1.74381">
        <ele>176.80000305176</ele>
        <time>2014-03-08T15:21:39.000Z</time>
      </trkpt>
      <trkpt lat="48.70272" lon="1.74369">
        <ele>177.19999694824</ele>
        <time>2014-03-08T15:21:45.000Z</time>
      </trkpt>
      <trkpt lat="48.70267" lon="1.74364">
        <ele>177.60000610352</ele>
        <time>2014-03-08T15:21:49.000Z</time>
      </trkpt>
      <trkpt lat="48.7026" lon="1.74349">
        <ele>178.19999694824</ele>
        <time>2014-03-08T15:21:56.000Z</time>
      </trkpt>
      <trkpt lat="48.70256" lon="1.74332">
        <ele>179</ele>
        <time>2014-03-08T15:22:03.000Z</time>
      </trkpt>
      <trkpt lat="48.70256" lon="1.7432">
        <ele>179.19999694824</ele>
        <time>2014-03-08T15:22:09.000Z</time>
      </trkpt>
      <trkpt lat="48.70257" lon="1.74308">
        <ele>179.19999694824</ele>
        <time>2014-03-08T15:22:15.000Z</time>
      </trkpt>
      <trkpt lat="48.70255" lon="1.74294">
        <ele>179.39999389648</ele>
        <time>2014-03-08T15:22:22.000Z</time>
      </trkpt>
      <trkpt lat="48.70254" lon="1.74286">
        <ele>179.60000610352</ele>
        <time>2014-03-08T15:22:27.000Z</time>
      </trkpt>
      <trkpt lat="48.70252" lon="1.74275">
        <ele>179.60000610352</ele>
        <time>2014-03-08T15:22:33.000Z</time>
      </trkpt>
      <trkpt lat="48.70248" lon="1.74262">
        <ele>179.80000305176</ele>
        <time>2014-03-08T15:22:40.000Z</time>
      </trkpt>
      <trkpt lat="48.70247" lon="1.74258">
        <ele>179.80000305176</ele>
        <time>2014-03-08T15:22:42.000Z</time>
      </trkpt>
      <trkpt lat="48.70242" lon="1.74249">
        <ele>179.80000305176</ele>
        <time>2014-03-08T15:22:48.000Z</time>
      </trkpt>
      <trkpt lat="48.7024" lon="1.74246">
        <ele>179.80000305176</ele>
        <time>2014-03-08T15:22:50.000Z</time>
      </trkpt>
      <trkpt lat="48.70237" lon="1.74239">
        <ele>179.60000610352</ele>
        <time>2014-03-08T15:22:54.000Z</time>
      </trkpt>
      <trkpt lat="48.70235" lon="1.74236">
        <ele>179.60000610352</ele>
        <time>2014-03-08T15:22:57.000Z</time>
      </trkpt>
      <trkpt lat="48.7023" lon="1.74232">
        <ele>179.60000610352</ele>
        <time>2014-03-08T15:23:01.000Z</time>
      </trkpt>
      <trkpt lat="48.7022" lon="1.74226">
        <ele>179.39999389648</ele>
        <time>2014-03-08T15:23:09.000Z</time>
      </trkpt>
      <trkpt lat="48.70219" lon="1.74223">
        <ele>179.39999389648</ele>
        <time>2014-03-08T15:23:12.000Z</time>
      </trkpt>
      <trkpt lat="48.70214" lon="1.74212">
        <ele>179.39999389648</ele>
        <time>2014-03-08T15:23:20.000Z</time>
      </trkpt>
      <trkpt lat="48.70209" lon="1.74198">
        <ele>179.39999389648</ele>
        <time>2014-03-08T15:23:27.000Z</time>
      </trkpt>
      <trkpt lat="48.70207" lon="1.7419">
        <ele>179.60000610352</ele>
        <time>2014-03-08T15:23:31.000Z</time>
      </trkpt>
      <trkpt lat="48.70206" lon="1.74175">
        <ele>179.80000305176</ele>
        <time>2014-03-08T15:23:38.000Z</time>
      </trkpt>
      <trkpt lat="48.70202" lon="1.74163">
        <ele>179.80000305176</ele>
        <time>2014-03-08T15:23:44.000Z</time>
      </trkpt>
      <trkpt lat="48.70201" lon="1.7415">
        <ele>180</ele>
        <time>2014-03-08T15:23:51.000Z</time>
      </trkpt>
      <trkpt lat="48.702" lon="1.74146">
        <ele>180</ele>
        <time>2014-03-08T15:23:53.000Z</time>
      </trkpt>
      <trkpt lat="48.70197" lon="1.74132">
        <ele>179.80000305176</ele>
        <time>2014-03-08T15:24:01.000Z</time>
      </trkpt>
      <trkpt lat="48.70194" lon="1.74119">
        <ele>179.80000305176</ele>
        <time>2014-03-08T15:24:08.000Z</time>
      </trkpt>
      <trkpt lat="48.7019" lon="1.74102">
        <ele>179.80000305176</ele>
        <time>2014-03-08T15:24:17.000Z</time>
      </trkpt>
      <trkpt lat="48.70187" lon="1.74091">
        <ele>179.80000305176</ele>
        <time>2014-03-08T15:24:24.000Z</time>
      </trkpt>
      <trkpt lat="48.70183" lon="1.74081">
        <ele>179.60000610352</ele>
        <time>2014-03-08T15:24:33.000Z</time>
      </trkpt>
      <trkpt lat="48.70183" lon="1.74077">
        <ele>179.60000610352</ele>
        <time>2014-03-08T15:24:35.000Z</time>
      </trkpt>
      <trkpt lat="48.70181" lon="1.74064">
        <ele>179.39999389648</ele>
        <time>2014-03-08T15:24:42.000Z</time>
      </trkpt>
      <trkpt lat="48.7018" lon="1.7406">
        <ele>179.39999389648</ele>
        <time>2014-03-08T15:24:44.000Z</time>
      </trkpt>
      <trkpt lat="48.70176" lon="1.7405">
        <ele>179.19999694824</ele>
        <time>2014-03-08T15:24:51.000Z</time>
      </trkpt>
      <trkpt lat="48.70168" lon="1.74047">
        <ele>179</ele>
        <time>2014-03-08T15:24:58.000Z</time>
      </trkpt>
      <trkpt lat="48.70167" lon="1.74047">
        <ele>179</ele>
        <time>2014-03-08T15:24:59.000Z</time>
      </trkpt>
      <trkpt lat="48.70157" lon="1.74052">
        <ele>178.80000305176</ele>
        <time>2014-03-08T15:25:07.000Z</time>
      </trkpt>
      <trkpt lat="48.7015" lon="1.74057">
        <ele>178.80000305176</ele>
        <time>2014-03-08T15:25:14.000Z</time>
      </trkpt>
      <trkpt lat="48.70141" lon="1.7406">
        <ele>178.60000610352</ele>
        <time>2014-03-08T15:25:21.000Z</time>
      </trkpt>
      <trkpt lat="48.70133" lon="1.74064">
        <ele>178.60000610352</ele>
        <time>2014-03-08T15:25:27.000Z</time>
      </trkpt>
      <trkpt lat="48.70126" lon="1.74068">
        <ele>178.60000610352</ele>
        <time>2014-03-08T15:25:33.000Z</time>
      </trkpt>
      <trkpt lat="48.70115" lon="1.74072">
        <ele>178.39999389648</ele>
        <time>2014-03-08T15:25:40.000Z</time>
      </trkpt>
      <trkpt lat="48.70107" lon="1.74076">
        <ele>178.19999694824</ele>
        <time>2014-03-08T15:25:45.000Z</time>
      </trkpt>
      <trkpt lat="48.70096" lon="1.74079">
        <ele>178.19999694824</ele>
        <time>2014-03-08T15:25:54.000Z</time>
      </trkpt>
      <trkpt lat="48.70091" lon="1.74082">
        <ele>178</ele>
        <time>2014-03-08T15:25:59.000Z</time>
      </trkpt>
      <trkpt lat="48.70076" lon="1.74088">
        <ele>177.39999389648</ele>
        <time>2014-03-08T15:26:08.000Z</time>
      </trkpt>
      <trkpt lat="48.70065" lon="1.74093">
        <ele>176.60000610352</ele>
        <time>2014-03-08T15:26:17.000Z</time>
      </trkpt>
      <trkpt lat="48.70055" lon="1.74097">
        <ele>175.80000305176</ele>
        <time>2014-03-08T15:26:24.000Z</time>
      </trkpt>
      <trkpt lat="48.70046" lon="1.74102">
        <ele>175</ele>
        <time>2014-03-08T15:26:30.000Z</time>
      </trkpt>
      <trkpt lat="48.70037" lon="1.74106">
        <ele>174.39999389648</ele>
        <time>2014-03-08T15:26:37.000Z</time>
      </trkpt>
      <trkpt lat="48.70027" lon="1.7411">
        <ele>173.60000610352</ele>
        <time>2014-03-08T15:26:43.000Z</time>
      </trkpt>
      <trkpt lat="48.70013" lon="1.74115">
        <ele>172.60000610352</ele>
        <time>2014-03-08T15:26:52.000Z</time>
      </trkpt>
      <trkpt lat="48.70007" lon="1.74117">
        <ele>172.19999694824</ele>
        <time>2014-03-08T15:26:56.000Z</time>
      </trkpt>
      <trkpt lat="48.69995" lon="1.74124">
        <ele>171.39999389648</ele>
        <time>2014-03-08T15:27:04.000Z</time>
      </trkpt>
      <trkpt lat="48.69988" lon="1.74127">
        <ele>171.39999389648</ele>
        <time>2014-03-08T15:27:09.000Z</time>
      </trkpt>
      <trkpt lat="48.69982" lon="1.7413">
        <ele>171.19999694824</ele>
        <time>2014-03-08T15:27:13.000Z</time>
      </trkpt>
      <trkpt lat="48.69979" lon="1.74131">
        <ele>171.19999694824</ele>
        <time>2014-03-08T15:27:15.000Z</time>
      </trkpt>
      <trkpt lat="48.6997" lon="1.74135">
        <ele>171</ele>
        <time>2014-03-08T15:27:21.000Z</time>
      </trkpt>
      <trkpt lat="48.69965" lon="1.74137">
        <ele>170.80000305176</ele>
        <time>2014-03-08T15:27:26.000Z</time>
      </trkpt>
      <trkpt lat="48.69955" lon="1.7414">
        <ele>170.60000610352</ele>
        <time>2014-03-08T15:27:33.000Z</time>
      </trkpt>
      <trkpt lat="48.69945" lon="1.74146">
        <ele>170.19999694824</ele>
        <time>2014-03-08T15:27:40.000Z</time>
      </trkpt>
      <trkpt lat="48.69936" lon="1.7415">
        <ele>170</ele>
        <time>2014-03-08T15:27:47.000Z</time>
      </trkpt>
      <trkpt lat="48.69927" lon="1.74154">
        <ele>169.60000610352</ele>
        <time>2014-03-08T15:27:54.000Z</time>
      </trkpt>
      <trkpt lat="48.6992" lon="1.74156">
        <ele>169.39999389648</ele>
        <time>2014-03-08T15:27:59.000Z</time>
      </trkpt>
      <trkpt lat="48.6991" lon="1.74161">
        <ele>169</ele>
        <time>2014-03-08T15:28:06.000Z</time>
      </trkpt>
      <trkpt lat="48.69902" lon="1.7417">
        <ele>168.39999389648</ele>
        <time>2014-03-08T15:28:14.000Z</time>
      </trkpt>
      <trkpt lat="48.69899" lon="1.74174">
        <ele>168.19999694824</ele>
        <time>2014-03-08T15:28:17.000Z</time>
      </trkpt>
      <trkpt lat="48.69896" lon="1.74176">
        <ele>168.19999694824</ele>
        <time>2014-03-08T15:28:21.000Z</time>
      </trkpt>
      <trkpt lat="48.69894" lon="1.74174">
        <ele>168</ele>
        <time>2014-03-08T15:28:24.000Z</time>
      </trkpt>
      <trkpt lat="48.69892" lon="1.7417">
        <ele>168</ele>
        <time>2014-03-08T15:28:27.000Z</time>
      </trkpt>
      <trkpt lat="48.69886" lon="1.74157">
        <ele>168.39999389648</ele>
        <time>2014-03-08T15:28:34.000Z</time>
      </trkpt>
      <trkpt lat="48.69882" lon="1.74145">
        <ele>168.60000610352</ele>
        <time>2014-03-08T15:28:40.000Z</time>
      </trkpt>
      <trkpt lat="48.69879" lon="1.74131">
        <ele>169.19999694824</ele>
        <time>2014-03-08T15:28:47.000Z</time>
      </trkpt>
      <trkpt lat="48.69876" lon="1.74119">
        <ele>169.60000610352</ele>
        <time>2014-03-08T15:28:54.000Z</time>
      </trkpt>
      <trkpt lat="48.69875" lon="1.74109">
        <ele>170</ele>
        <time>2014-03-08T15:28:59.000Z</time>
      </trkpt>
      <trkpt lat="48.69876" lon="1.74103">
        <ele>170.19999694824</ele>
        <time>2014-03-08T15:29:04.000Z</time>
      </trkpt>
      <trkpt lat="48.69874" lon="1.74095">
        <ele>170.39999389648</ele>
        <time>2014-03-08T15:29:09.000Z</time>
      </trkpt>
      <trkpt lat="48.69873" lon="1.7409">
        <ele>170.60000610352</ele>
        <time>2014-03-08T15:29:12.000Z</time>
      </trkpt>
      <trkpt lat="48.6987" lon="1.74078">
        <ele>171</ele>
        <time>2014-03-08T15:29:19.000Z</time>
      </trkpt>
      <trkpt lat="48.69865" lon="1.74067">
        <ele>171</ele>
        <time>2014-03-08T15:29:25.000Z</time>
      </trkpt>
      <trkpt lat="48.69864" lon="1.74061">
        <ele>171</ele>
        <time>2014-03-08T15:29:29.000Z</time>
      </trkpt>
      <trkpt lat="48.69862" lon="1.74053">
        <ele>171</ele>
        <time>2014-03-08T15:29:33.000Z</time>
      </trkpt>
      <trkpt lat="48.69859" lon="1.74043">
        <ele>171</ele>
        <time>2014-03-08T15:29:38.000Z</time>
      </trkpt>
      <trkpt lat="48.69853" lon="1.74027">
        <ele>171.19999694824</ele>
        <time>2014-03-08T15:29:46.000Z</time>
      </trkpt>
      <trkpt lat="48.69847" lon="1.74011">
        <ele>171.19999694824</ele>
        <time>2014-03-08T15:29:54.000Z</time>
      </trkpt>
      <trkpt lat="48.69845" lon="1.74001">
        <ele>171.19999694824</ele>
        <time>2014-03-08T15:29:59.000Z</time>
      </trkpt>
      <trkpt lat="48.69843" lon="1.73995">
        <ele>171.39999389648</ele>
        <time>2014-03-08T15:30:02.000Z</time>
      </trkpt>
      <trkpt lat="48.6984" lon="1.73983">
        <ele>171.60000610352</ele>
        <time>2014-03-08T15:30:09.000Z</time>
      </trkpt>
      <trkpt lat="48.69836" lon="1.73967">
        <ele>171.80000305176</ele>
        <time>2014-03-08T15:30:17.000Z</time>
      </trkpt>
      <trkpt lat="48.69835" lon="1.73962">
        <ele>172</ele>
        <time>2014-03-08T15:30:19.000Z</time>
      </trkpt>
      <trkpt lat="48.6983" lon="1.73941">
        <ele>172.60000610352</ele>
        <time>2014-03-08T15:30:30.000Z</time>
      </trkpt>
      <trkpt lat="48.69829" lon="1.73928">
        <ele>172.80000305176</ele>
        <time>2014-03-08T15:30:37.000Z</time>
      </trkpt>
      <trkpt lat="48.69826" lon="1.73915">
        <ele>173.19999694824</ele>
        <time>2014-03-08T15:30:44.000Z</time>
      </trkpt>
      <trkpt lat="48.69822" lon="1.73904">
        <ele>173.60000610352</ele>
        <time>2014-03-08T15:30:51.000Z</time>
      </trkpt>
      <trkpt lat="48.69819" lon="1.73889">
        <ele>173.80000305176</ele>
        <time>2014-03-08T15:30:59.000Z</time>
      </trkpt>
      <trkpt lat="48.69815" lon="1.73872">
        <ele>174.19999694824</ele>
        <time>2014-03-08T15:31:08.000Z</time>
      </trkpt>
      <trkpt lat="48.69814" lon="1.73861">
        <ele>174.39999389648</ele>
        <time>2014-03-08T15:31:14.000Z</time>
      </trkpt>
      <trkpt lat="48.69809" lon="1.73845">
        <ele>174.80000305176</ele>
        <time>2014-03-08T15:31:22.000Z</time>
      </trkpt>
      <trkpt lat="48.69805" lon="1.73832">
        <ele>175</ele>
        <time>2014-03-08T15:31:29.000Z</time>
      </trkpt>
      <trkpt lat="48.69804" lon="1.73828">
        <ele>175.19999694824</ele>
        <time>2014-03-08T15:31:32.000Z</time>
      </trkpt>
      <trkpt lat="48.69803" lon="1.73819">
        <ele>175.39999389648</ele>
        <time>2014-03-08T15:31:37.000Z</time>
      </trkpt>
      <trkpt lat="48.69801" lon="1.73809">
        <ele>175.80000305176</ele>
        <time>2014-03-08T15:31:43.000Z</time>
      </trkpt>
      <trkpt lat="48.69799" lon="1.73799">
        <ele>176</ele>
        <time>2014-03-08T15:31:48.000Z</time>
      </trkpt>
      <trkpt lat="48.69796" lon="1.73785">
        <ele>176.39999389648</ele>
        <time>2014-03-08T15:31:55.000Z</time>
      </trkpt>
      <trkpt lat="48.69794" lon="1.73773">
        <ele>176.80000305176</ele>
        <time>2014-03-08T15:32:02.000Z</time>
      </trkpt>
      <trkpt lat="48.69791" lon="1.73762">
        <ele>177.19999694824</ele>
        <time>2014-03-08T15:32:08.000Z</time>
      </trkpt>
      <trkpt lat="48.69789" lon="1.7375">
        <ele>177.39999389648</ele>
        <time>2014-03-08T15:32:15.000Z</time>
      </trkpt>
      <trkpt lat="48.69788" lon="1.73747">
        <ele>177.60000610352</ele>
        <time>2014-03-08T15:32:17.000Z</time>
      </trkpt>
      <trkpt lat="48.69785" lon="1.73736">
        <ele>177.80000305176</ele>
        <time>2014-03-08T15:32:23.000Z</time>
      </trkpt>
      <trkpt lat="48.69784" lon="1.73725">
        <ele>178</ele>
        <time>2014-03-08T15:32:28.000Z</time>
      </trkpt>
      <trkpt lat="48.69779" lon="1.73708">
        <ele>178.60000610352</ele>
        <time>2014-03-08T15:32:37.000Z</time>
      </trkpt>
      <trkpt lat="48.69778" lon="1.73707">
        <ele>178.60000610352</ele>
        <time>2014-03-08T15:32:38.000Z</time>
      </trkpt>
      <trkpt lat="48.69775" lon="1.73694">
        <ele>179</ele>
        <time>2014-03-08T15:32:46.000Z</time>
      </trkpt>
      <trkpt lat="48.69773" lon="1.7369">
        <ele>179</ele>
        <time>2014-03-08T15:32:49.000Z</time>
      </trkpt>
      <trkpt lat="48.69767" lon="1.73683">
        <ele>179.19999694824</ele>
        <time>2014-03-08T15:32:57.000Z</time>
      </trkpt>
      <trkpt lat="48.69765" lon="1.73681">
        <ele>179.39999389648</ele>
        <time>2014-03-08T15:32:59.000Z</time>
      </trkpt>
      <trkpt lat="48.69758" lon="1.73671">
        <ele>179.80000305176</ele>
        <time>2014-03-08T15:33:06.000Z</time>
      </trkpt>
      <trkpt lat="48.69748" lon="1.73672">
        <ele>179.80000305176</ele>
        <time>2014-03-08T15:33:14.000Z</time>
      </trkpt>
      <trkpt lat="48.69742" lon="1.73671">
        <ele>179.80000305176</ele>
        <time>2014-03-08T15:33:18.000Z</time>
      </trkpt>
      <trkpt lat="48.69733" lon="1.73671">
        <ele>179.80000305176</ele>
        <time>2014-03-08T15:33:26.000Z</time>
      </trkpt>
      <trkpt lat="48.69723" lon="1.73672">
        <ele>179.80000305176</ele>
        <time>2014-03-08T15:33:35.000Z</time>
      </trkpt>
      <trkpt lat="48.69711" lon="1.73671">
        <ele>179.80000305176</ele>
        <time>2014-03-08T15:33:44.000Z</time>
      </trkpt>
      <trkpt lat="48.69701" lon="1.73669">
        <ele>180</ele>
        <time>2014-03-08T15:33:53.000Z</time>
      </trkpt>
      <trkpt lat="48.69699" lon="1.73669">
        <ele>180</ele>
        <time>2014-03-08T15:33:55.000Z</time>
      </trkpt>
      <trkpt lat="48.69689" lon="1.7367">
        <ele>180</ele>
        <time>2014-03-08T15:34:03.000Z</time>
      </trkpt>
      <trkpt lat="48.69688" lon="1.7367">
        <ele>180</ele>
        <time>2014-03-08T15:34:04.000Z</time>
      </trkpt>
      <trkpt lat="48.69683" lon="1.73669">
        <ele>180</ele>
        <time>2014-03-08T15:34:10.000Z</time>
      </trkpt>
      <trkpt lat="48.69677" lon="1.7367">
        <ele>180</ele>
        <time>2014-03-08T15:34:16.000Z</time>
      </trkpt>
      <trkpt lat="48.6967" lon="1.73669">
        <ele>180</ele>
        <time>2014-03-08T15:34:22.000Z</time>
      </trkpt>
      <trkpt lat="48.69666" lon="1.73668">
        <ele>180</ele>
        <time>2014-03-08T15:34:26.000Z</time>
      </trkpt>
      <trkpt lat="48.69659" lon="1.73667">
        <ele>180</ele>
        <time>2014-03-08T15:34:33.000Z</time>
      </trkpt>
      <trkpt lat="48.69658" lon="1.73667">
        <ele>180</ele>
        <time>2014-03-08T15:34:34.000Z</time>
      </trkpt>
      <trkpt lat="48.6965" lon="1.73667">
        <ele>180</ele>
        <time>2014-03-08T15:34:41.000Z</time>
      </trkpt>
      <trkpt lat="48.69649" lon="1.73667">
        <ele>180</ele>
        <time>2014-03-08T15:34:42.000Z</time>
      </trkpt>
      <trkpt lat="48.69641" lon="1.73665">
        <ele>180</ele>
        <time>2014-03-08T15:34:50.000Z</time>
      </trkpt>
      <trkpt lat="48.69633" lon="1.73664">
        <ele>180</ele>
        <time>2014-03-08T15:34:56.000Z</time>
      </trkpt>
      <trkpt lat="48.69629" lon="1.73659">
        <ele>180.19999694824</ele>
        <time>2014-03-08T15:35:02.000Z</time>
      </trkpt>
      <trkpt lat="48.69623" lon="1.73657">
        <ele>180.19999694824</ele>
        <time>2014-03-08T15:35:07.000Z</time>
      </trkpt>
      <trkpt lat="48.69612" lon="1.7365">
        <ele>180.39999389648</ele>
        <time>2014-03-08T15:35:16.000Z</time>
      </trkpt>
      <trkpt lat="48.69604" lon="1.73642">
        <ele>180.60000610352</ele>
        <time>2014-03-08T15:35:23.000Z</time>
      </trkpt>
      <trkpt lat="48.69598" lon="1.73635">
        <ele>180.60000610352</ele>
        <time>2014-03-08T15:35:29.000Z</time>
      </trkpt>
      <trkpt lat="48.69589" lon="1.73628">
        <ele>181</ele>
        <time>2014-03-08T15:35:37.000Z</time>
      </trkpt>
      <trkpt lat="48.69581" lon="1.73618">
        <ele>181</ele>
        <time>2014-03-08T15:35:45.000Z</time>
      </trkpt>
      <trkpt lat="48.69576" lon="1.73612">
        <ele>180.80000305176</ele>
        <time>2014-03-08T15:35:50.000Z</time>
      </trkpt>
      <trkpt lat="48.69572" lon="1.73607">
        <ele>180.39999389648</ele>
        <time>2014-03-08T15:35:54.000Z</time>
      </trkpt>
      <trkpt lat="48.69565" lon="1.73599">
        <ele>180.19999694824</ele>
        <time>2014-03-08T15:36:01.000Z</time>
      </trkpt>
      <trkpt lat="48.69558" lon="1.73592">
        <ele>179.60000610352</ele>
        <time>2014-03-08T15:36:07.000Z</time>
      </trkpt>
      <trkpt lat="48.69549" lon="1.73581">
        <ele>179.19999694824</ele>
        <time>2014-03-08T15:36:16.000Z</time>
      </trkpt>
      <trkpt lat="48.69541" lon="1.73572">
        <ele>178.60000610352</ele>
        <time>2014-03-08T15:36:24.000Z</time>
      </trkpt>
      <trkpt lat="48.69532" lon="1.73561">
        <ele>178</ele>
        <time>2014-03-08T15:36:32.000Z</time>
      </trkpt>
      <trkpt lat="48.69527" lon="1.73555">
        <ele>177.60000610352</ele>
        <time>2014-03-08T15:36:37.000Z</time>
      </trkpt>
      <trkpt lat="48.6952" lon="1.73548">
        <ele>177</ele>
        <time>2014-03-08T15:36:44.000Z</time>
      </trkpt>
      <trkpt lat="48.69514" lon="1.73542">
        <ele>176.60000610352</ele>
        <time>2014-03-08T15:36:49.000Z</time>
      </trkpt>
      <trkpt lat="48.69506" lon="1.73535">
        <ele>176</ele>
        <time>2014-03-08T15:36:56.000Z</time>
      </trkpt>
      <trkpt lat="48.69497" lon="1.73525">
        <ele>175.60000610352</ele>
        <time>2014-03-08T15:37:04.000Z</time>
      </trkpt>
      <trkpt lat="48.69491" lon="1.73518">
        <ele>175.19999694824</ele>
        <time>2014-03-08T15:37:09.000Z</time>
      </trkpt>
      <trkpt lat="48.69486" lon="1.73507">
        <ele>175</ele>
        <time>2014-03-08T15:37:17.000Z</time>
      </trkpt>
      <trkpt lat="48.69484" lon="1.73504">
        <ele>174.80000305176</ele>
        <time>2014-03-08T15:37:19.000Z</time>
      </trkpt>
      <trkpt lat="48.69473" lon="1.73491">
        <ele>174.39999389648</ele>
        <time>2014-03-08T15:37:28.000Z</time>
      </trkpt>
      <trkpt lat="48.69465" lon="1.7348">
        <ele>174</ele>
        <time>2014-03-08T15:37:36.000Z</time>
      </trkpt>
      <trkpt lat="48.69456" lon="1.73469">
        <ele>173.60000610352</ele>
        <time>2014-03-08T15:37:45.000Z</time>
      </trkpt>
      <trkpt lat="48.69447" lon="1.73461">
        <ele>173.19999694824</ele>
        <time>2014-03-08T15:37:53.000Z</time>
      </trkpt>
      <trkpt lat="48.69439" lon="1.73454">
        <ele>172.80000305176</ele>
        <time>2014-03-08T15:38:01.000Z</time>
      </trkpt>
      <trkpt lat="48.69433" lon="1.73446">
        <ele>172.39999389648</ele>
        <time>2014-03-08T15:38:08.000Z</time>
      </trkpt>
      <trkpt lat="48.69424" lon="1.73433">
        <ele>172.19999694824</ele>
        <time>2014-03-08T15:38:18.000Z</time>
      </trkpt>
      <trkpt lat="48.69415" lon="1.73424">
        <ele>171.80000305176</ele>
        <time>2014-03-08T15:38:27.000Z</time>
      </trkpt>
      <trkpt lat="48.69412" lon="1.7342">
        <ele>172</ele>
        <time>2014-03-08T15:38:30.000Z</time>
      </trkpt>
      <trkpt lat="48.69403" lon="1.7341">
        <ele>172.60000610352</ele>
        <time>2014-03-08T15:38:39.000Z</time>
      </trkpt>
      <trkpt lat="48.69395" lon="1.73401">
        <ele>173.19999694824</ele>
        <time>2014-03-08T15:38:47.000Z</time>
      </trkpt>
      <trkpt lat="48.69394" lon="1.73399">
        <ele>173.19999694824</ele>
        <time>2014-03-08T15:38:48.000Z</time>
      </trkpt>
      <trkpt lat="48.6939" lon="1.73396">
        <ele>173.39999389648</ele>
        <time>2014-03-08T15:38:52.000Z</time>
      </trkpt>
      <trkpt lat="48.69382" lon="1.73383">
        <ele>174</ele>
        <time>2014-03-08T15:39:01.000Z</time>
      </trkpt>
      <trkpt lat="48.69374" lon="1.73374">
        <ele>174.60000610352</ele>
        <time>2014-03-08T15:39:09.000Z</time>
      </trkpt>
      <trkpt lat="48.69367" lon="1.73365">
        <ele>175</ele>
        <time>2014-03-08T15:39:17.000Z</time>
      </trkpt>
      <trkpt lat="48.6936" lon="1.73358">
        <ele>175.39999389648</ele>
        <time>2014-03-08T15:39:24.000Z</time>
      </trkpt>
      <trkpt lat="48.69353" lon="1.73352">
        <ele>175.80000305176</ele>
        <time>2014-03-08T15:39:31.000Z</time>
      </trkpt>
      <trkpt lat="48.69347" lon="1.73342">
        <ele>176.39999389648</ele>
        <time>2014-03-08T15:39:39.000Z</time>
      </trkpt>
      <trkpt lat="48.69343" lon="1.73336">
        <ele>176.60000610352</ele>
        <time>2014-03-08T15:39:45.000Z</time>
      </trkpt>
      <trkpt lat="48.69338" lon="1.7333">
        <ele>176.80000305176</ele>
        <time>2014-03-08T15:39:52.000Z</time>
      </trkpt>
      <trkpt lat="48.69335" lon="1.73325">
        <ele>177</ele>
        <time>2014-03-08T15:39:57.000Z</time>
      </trkpt>
      <trkpt lat="48.69329" lon="1.73319">
        <ele>177.19999694824</ele>
        <time>2014-03-08T15:40:03.000Z</time>
      </trkpt>
      <trkpt lat="48.69323" lon="1.73312">
        <ele>177.39999389648</ele>
        <time>2014-03-08T15:40:09.000Z</time>
      </trkpt>
      <trkpt lat="48.69314" lon="1.73304">
        <ele>177.60000610352</ele>
        <time>2014-03-08T15:40:17.000Z</time>
      </trkpt>
      <trkpt lat="48.69307" lon="1.73296">
        <ele>177.60000610352</ele>
        <time>2014-03-08T15:40:24.000Z</time>
      </trkpt>
      <trkpt lat="48.69299" lon="1.73289">
        <ele>177.80000305176</ele>
        <time>2014-03-08T15:40:31.000Z</time>
      </trkpt>
      <trkpt lat="48.69289" lon="1.73278">
        <ele>177.80000305176</ele>
        <time>2014-03-08T15:40:40.000Z</time>
      </trkpt>
      <trkpt lat="48.69282" lon="1.73268">
        <ele>177.80000305176</ele>
        <time>2014-03-08T15:40:47.000Z</time>
      </trkpt>
      <trkpt lat="48.69273" lon="1.73258">
        <ele>177.80000305176</ele>
        <time>2014-03-08T15:40:56.000Z</time>
      </trkpt>
      <trkpt lat="48.69268" lon="1.73253">
        <ele>177.80000305176</ele>
        <time>2014-03-08T15:41:02.000Z</time>
      </trkpt>
      <trkpt lat="48.69263" lon="1.73243">
        <ele>177.60000610352</ele>
        <time>2014-03-08T15:41:08.000Z</time>
      </trkpt>
      <trkpt lat="48.69261" lon="1.73237">
        <ele>177.19999694824</ele>
        <time>2014-03-08T15:41:13.000Z</time>
      </trkpt>
      <trkpt lat="48.69261" lon="1.73232">
        <ele>177.19999694824</ele>
        <time>2014-03-08T15:41:16.000Z</time>
      </trkpt>
      <trkpt lat="48.69267" lon="1.73219">
        <ele>176.60000610352</ele>
        <time>2014-03-08T15:41:24.000Z</time>
      </trkpt>
      <trkpt lat="48.69273" lon="1.73205">
        <ele>176</ele>
        <time>2014-03-08T15:41:32.000Z</time>
      </trkpt>
      <trkpt lat="48.69275" lon="1.73195">
        <ele>175.60000610352</ele>
        <time>2014-03-08T15:41:38.000Z</time>
      </trkpt>
      <trkpt lat="48.6928" lon="1.73186">
        <ele>175.39999389648</ele>
        <time>2014-03-08T15:41:44.000Z</time>
      </trkpt>
      <trkpt lat="48.69286" lon="1.73175">
        <ele>175.19999694824</ele>
        <time>2014-03-08T15:41:51.000Z</time>
      </trkpt>
      <trkpt lat="48.69291" lon="1.73161">
        <ele>174.80000305176</ele>
        <time>2014-03-08T15:41:59.000Z</time>
      </trkpt>
      <trkpt lat="48.69298" lon="1.73147">
        <ele>174.19999694824</ele>
        <time>2014-03-08T15:42:07.000Z</time>
      </trkpt>
      <trkpt lat="48.69304" lon="1.73135">
        <ele>173.80000305176</ele>
        <time>2014-03-08T15:42:14.000Z</time>
      </trkpt>
      <trkpt lat="48.6931" lon="1.73123">
        <ele>173.39999389648</ele>
        <time>2014-03-08T15:42:22.000Z</time>
      </trkpt>
      <trkpt lat="48.69317" lon="1.73112">
        <ele>173</ele>
        <time>2014-03-08T15:42:29.000Z</time>
      </trkpt>
      <trkpt lat="48.69322" lon="1.73103">
        <ele>172.60000610352</ele>
        <time>2014-03-08T15:42:35.000Z</time>
      </trkpt>
      <trkpt lat="48.69328" lon="1.73092">
        <ele>172.19999694824</ele>
        <time>2014-03-08T15:42:42.000Z</time>
      </trkpt>
      <trkpt lat="48.69333" lon="1.73079">
        <ele>171.80000305176</ele>
        <time>2014-03-08T15:42:49.000Z</time>
      </trkpt>
      <trkpt lat="48.6934" lon="1.73064">
        <ele>171.60000610352</ele>
        <time>2014-03-08T15:42:57.000Z</time>
      </trkpt>
      <trkpt lat="48.69347" lon="1.73047">
        <ele>171.39999389648</ele>
        <time>2014-03-08T15:43:07.000Z</time>
      </trkpt>
      <trkpt lat="48.69349" lon="1.73044">
        <ele>171.39999389648</ele>
        <time>2014-03-08T15:43:09.000Z</time>
      </trkpt>
      <trkpt lat="48.69359" lon="1.73028">
        <ele>171</ele>
        <time>2014-03-08T15:43:17.000Z</time>
      </trkpt>
      <trkpt lat="48.69371" lon="1.7301">
        <ele>170.80000305176</ele>
        <time>2014-03-08T15:43:22.000Z</time>
      </trkpt>
      <trkpt lat="48.69382" lon="1.72989">
        <ele>170.19999694824</ele>
        <time>2014-03-08T15:43:27.000Z</time>
      </trkpt>
      <trkpt lat="48.69397" lon="1.72967">
        <ele>169.60000610352</ele>
        <time>2014-03-08T15:43:32.000Z</time>
      </trkpt>
      <trkpt lat="48.69409" lon="1.72945">
        <ele>169</ele>
        <time>2014-03-08T15:43:37.000Z</time>
      </trkpt>
      <trkpt lat="48.69423" lon="1.72914">
        <ele>168</ele>
        <time>2014-03-08T15:43:43.000Z</time>
      </trkpt>
      <trkpt lat="48.69431" lon="1.72898">
        <ele>167.60000610352</ele>
        <time>2014-03-08T15:43:46.000Z</time>
      </trkpt>
      <trkpt lat="48.69443" lon="1.72869">
        <ele>167</ele>
        <time>2014-03-08T15:43:51.000Z</time>
      </trkpt>
      <trkpt lat="48.69448" lon="1.72857">
        <ele>166.60000610352</ele>
        <time>2014-03-08T15:43:53.000Z</time>
      </trkpt>
      <trkpt lat="48.69456" lon="1.72833">
        <ele>166</ele>
        <time>2014-03-08T15:43:57.000Z</time>
      </trkpt>
      <trkpt lat="48.69468" lon="1.72806">
        <ele>164.80000305176</ele>
        <time>2014-03-08T15:44:02.000Z</time>
      </trkpt>
      <trkpt lat="48.6948" lon="1.72787">
        <ele>164.39999389648</ele>
        <time>2014-03-08T15:44:06.000Z</time>
      </trkpt>
      <trkpt lat="48.69489" lon="1.7277">
        <ele>163.60000610352</ele>
        <time>2014-03-08T15:44:11.000Z</time>
      </trkpt>
      <trkpt lat="48.69496" lon="1.72756">
        <ele>163.19999694824</ele>
        <time>2014-03-08T15:44:19.000Z</time>
      </trkpt>
      <trkpt lat="48.69503" lon="1.72742">
        <ele>163.19999694824</ele>
        <time>2014-03-08T15:44:27.000Z</time>
      </trkpt>
      <trkpt lat="48.69512" lon="1.72731">
        <ele>164</ele>
        <time>2014-03-08T15:44:34.000Z</time>
      </trkpt>
      <trkpt lat="48.69516" lon="1.7273">
        <ele>164.19999694824</ele>
        <time>2014-03-08T15:44:36.000Z</time>
      </trkpt>
      <trkpt lat="48.69522" lon="1.72719">
        <ele>164.80000305176</ele>
        <time>2014-03-08T15:44:43.000Z</time>
      </trkpt>
      <trkpt lat="48.69528" lon="1.72712">
        <ele>165.39999389648</ele>
        <time>2014-03-08T15:44:49.000Z</time>
      </trkpt>
      <trkpt lat="48.69534" lon="1.72707">
        <ele>165.80000305176</ele>
        <time>2014-03-08T15:44:54.000Z</time>
      </trkpt>
      <trkpt lat="48.69542" lon="1.72699">
        <ele>166.39999389648</ele>
        <time>2014-03-08T15:45:00.000Z</time>
      </trkpt>
      <trkpt lat="48.69541" lon="1.72691">
        <ele>166.60000610352</ele>
        <time>2014-03-08T15:45:06.000Z</time>
      </trkpt>
      <trkpt lat="48.6954" lon="1.7269">
        <ele>166.39999389648</ele>
        <time>2014-03-08T15:45:07.000Z</time>
      </trkpt>
      <trkpt lat="48.69531" lon="1.72687">
        <ele>165.80000305176</ele>
        <time>2014-03-08T15:45:14.000Z</time>
      </trkpt>
      <trkpt lat="48.69521" lon="1.72683">
        <ele>165.19999694824</ele>
        <time>2014-03-08T15:45:22.000Z</time>
      </trkpt>
      <trkpt lat="48.69513" lon="1.72677">
        <ele>164.80000305176</ele>
        <time>2014-03-08T15:45:29.000Z</time>
      </trkpt>
      <trkpt lat="48.69511" lon="1.72676">
        <ele>164.60000610352</ele>
        <time>2014-03-08T15:45:31.000Z</time>
      </trkpt>
      <trkpt lat="48.69502" lon="1.72668">
        <ele>164.19999694824</ele>
        <time>2014-03-08T15:45:38.000Z</time>
      </trkpt>
      <trkpt lat="48.69494" lon="1.72656">
        <ele>164</ele>
        <time>2014-03-08T15:45:47.000Z</time>
      </trkpt>
      <trkpt lat="48.69487" lon="1.72644">
        <ele>163.80000305176</ele>
        <time>2014-03-08T15:45:54.000Z</time>
      </trkpt>
      <trkpt lat="48.69478" lon="1.72631">
        <ele>163.60000610352</ele>
        <time>2014-03-08T15:46:00.000Z</time>
      </trkpt>
      <trkpt lat="48.69467" lon="1.72607">
        <ele>163.39999389648</ele>
        <time>2014-03-08T15:46:06.000Z</time>
      </trkpt>
      <trkpt lat="48.69455" lon="1.7258">
        <ele>162.80000305176</ele>
        <time>2014-03-08T15:46:13.000Z</time>
      </trkpt>
      <trkpt lat="48.69441" lon="1.7255">
        <ele>162.60000610352</ele>
        <time>2014-03-08T15:46:21.000Z</time>
      </trkpt>
      <trkpt lat="48.69432" lon="1.72527">
        <ele>162.80000305176</ele>
        <time>2014-03-08T15:46:28.000Z</time>
      </trkpt>
      <trkpt lat="48.6943" lon="1.7252">
        <ele>162.80000305176</ele>
        <time>2014-03-08T15:46:33.000Z</time>
      </trkpt>
      <trkpt lat="48.69428" lon="1.72515">
        <ele>163</ele>
        <time>2014-03-08T15:46:37.000Z</time>
      </trkpt>
      <trkpt lat="48.69424" lon="1.72507">
        <ele>163</ele>
        <time>2014-03-08T15:46:42.000Z</time>
      </trkpt>
      <trkpt lat="48.69418" lon="1.72497">
        <ele>163</ele>
        <time>2014-03-08T15:46:48.000Z</time>
      </trkpt>
      <trkpt lat="48.69413" lon="1.72486">
        <ele>162.80000305176</ele>
        <time>2014-03-08T15:46:56.000Z</time>
      </trkpt>
      <trkpt lat="48.69406" lon="1.72476">
        <ele>162.60000610352</ele>
        <time>2014-03-08T15:47:03.000Z</time>
      </trkpt>
      <trkpt lat="48.69401" lon="1.72469">
        <ele>162.60000610352</ele>
        <time>2014-03-08T15:47:08.000Z</time>
      </trkpt>
      <trkpt lat="48.69396" lon="1.72458">
        <ele>162.39999389648</ele>
        <time>2014-03-08T15:47:15.000Z</time>
      </trkpt>
      <trkpt lat="48.69395" lon="1.72456">
        <ele>162.39999389648</ele>
        <time>2014-03-08T15:47:16.000Z</time>
      </trkpt>
      <trkpt lat="48.69385" lon="1.72444">
        <ele>162.39999389648</ele>
        <time>2014-03-08T15:47:24.000Z</time>
      </trkpt>
      <trkpt lat="48.69383" lon="1.7244">
        <ele>162.39999389648</ele>
        <time>2014-03-08T15:47:27.000Z</time>
      </trkpt>
      <trkpt lat="48.69379" lon="1.72433">
        <ele>162.19999694824</ele>
        <time>2014-03-08T15:47:33.000Z</time>
      </trkpt>
      <trkpt lat="48.69375" lon="1.72423">
        <ele>162.19999694824</ele>
        <time>2014-03-08T15:47:40.000Z</time>
      </trkpt>
      <trkpt lat="48.6937" lon="1.72413">
        <ele>162</ele>
        <time>2014-03-08T15:47:47.000Z</time>
      </trkpt>
      <trkpt lat="48.69369" lon="1.72411">
        <ele>162.19999694824</ele>
        <time>2014-03-08T15:47:48.000Z</time>
      </trkpt>
      <trkpt lat="48.69366" lon="1.72405">
        <ele>162.19999694824</ele>
        <time>2014-03-08T15:47:53.000Z</time>
      </trkpt>
      <trkpt lat="48.69358" lon="1.72394">
        <ele>162.39999389648</ele>
        <time>2014-03-08T15:48:01.000Z</time>
      </trkpt>
      <trkpt lat="48.69352" lon="1.72383">
        <ele>162.39999389648</ele>
        <time>2014-03-08T15:48:09.000Z</time>
      </trkpt>
      <trkpt lat="48.69348" lon="1.72372">
        <ele>162.60000610352</ele>
        <time>2014-03-08T15:48:17.000Z</time>
      </trkpt>
      <trkpt lat="48.69344" lon="1.72364">
        <ele>162.60000610352</ele>
        <time>2014-03-08T15:48:23.000Z</time>
      </trkpt>
      <trkpt lat="48.69337" lon="1.72352">
        <ele>162.80000305176</ele>
        <time>2014-03-08T15:48:31.000Z</time>
      </trkpt>
      <trkpt lat="48.69331" lon="1.72339">
        <ele>163.19999694824</ele>
        <time>2014-03-08T15:48:38.000Z</time>
      </trkpt>
      <trkpt lat="48.69327" lon="1.7233">
        <ele>163.39999389648</ele>
        <time>2014-03-08T15:48:44.000Z</time>
      </trkpt>
      <trkpt lat="48.69322" lon="1.72319">
        <ele>163.39999389648</ele>
        <time>2014-03-08T15:48:50.000Z</time>
      </trkpt>
      <trkpt lat="48.69317" lon="1.72306">
        <ele>163.39999389648</ele>
        <time>2014-03-08T15:48:57.000Z</time>
      </trkpt>
      <trkpt lat="48.6931" lon="1.72292">
        <ele>163.60000610352</ele>
        <time>2014-03-08T15:49:06.000Z</time>
      </trkpt>
      <trkpt lat="48.69308" lon="1.72286">
        <ele>163.80000305176</ele>
        <time>2014-03-08T15:49:09.000Z</time>
      </trkpt>
      <trkpt lat="48.69303" lon="1.72278">
        <ele>164</ele>
        <time>2014-03-08T15:49:15.000Z</time>
      </trkpt>
      <trkpt lat="48.693" lon="1.72266">
        <ele>164</ele>
        <time>2014-03-08T15:49:22.000Z</time>
      </trkpt>
      <trkpt lat="48.69299" lon="1.72264">
        <ele>164</ele>
        <time>2014-03-08T15:49:23.000Z</time>
      </trkpt>
      <trkpt lat="48.69293" lon="1.72251">
        <ele>164.39999389648</ele>
        <time>2014-03-08T15:49:30.000Z</time>
      </trkpt>
      <trkpt lat="48.69284" lon="1.72236">
        <ele>165.19999694824</ele>
        <time>2014-03-08T15:49:38.000Z</time>
      </trkpt>
      <trkpt lat="48.69278" lon="1.72227">
        <ele>165.60000610352</ele>
        <time>2014-03-08T15:49:44.000Z</time>
      </trkpt>
      <trkpt lat="48.69277" lon="1.72224">
        <ele>165.80000305176</ele>
        <time>2014-03-08T15:49:46.000Z</time>
      </trkpt>
      <trkpt lat="48.69272" lon="1.72223">
        <ele>166.19999694824</ele>
        <time>2014-03-08T15:49:51.000Z</time>
      </trkpt>
      <trkpt lat="48.69262" lon="1.72213">
        <ele>166.80000305176</ele>
        <time>2014-03-08T15:49:58.000Z</time>
      </trkpt>
      <trkpt lat="48.69261" lon="1.7221">
        <ele>166.80000305176</ele>
        <time>2014-03-08T15:50:00.000Z</time>
      </trkpt>
      <trkpt lat="48.69253" lon="1.72199">
        <ele>167.19999694824</ele>
        <time>2014-03-08T15:50:07.000Z</time>
      </trkpt>
      <trkpt lat="48.69248" lon="1.72188">
        <ele>167.39999389648</ele>
        <time>2014-03-08T15:50:14.000Z</time>
      </trkpt>
      <trkpt lat="48.69246" lon="1.72178">
        <ele>167.39999389648</ele>
        <time>2014-03-08T15:50:19.000Z</time>
      </trkpt>
      <trkpt lat="48.69251" lon="1.72168">
        <ele>167</ele>
        <time>2014-03-08T15:50:26.000Z</time>
      </trkpt>
      <trkpt lat="48.69267" lon="1.72155">
        <ele>166.39999389648</ele>
        <time>2014-03-08T15:50:32.000Z</time>
      </trkpt>
      <trkpt lat="48.69282" lon="1.7214">
        <ele>166.19999694824</ele>
        <time>2014-03-08T15:50:37.000Z</time>
      </trkpt>
      <trkpt lat="48.69295" lon="1.72129">
        <ele>166.19999694824</ele>
        <time>2014-03-08T15:50:42.000Z</time>
      </trkpt>
      <trkpt lat="48.69315" lon="1.72113">
        <ele>166.60000610352</ele>
        <time>2014-03-08T15:50:48.000Z</time>
      </trkpt>
      <trkpt lat="48.69327" lon="1.721">
        <ele>167</ele>
        <time>2014-03-08T15:50:53.000Z</time>
      </trkpt>
      <trkpt lat="48.69342" lon="1.72088">
        <ele>167.39999389648</ele>
        <time>2014-03-08T15:50:59.000Z</time>
      </trkpt>
      <trkpt lat="48.69359" lon="1.72077">
        <ele>167.19999694824</ele>
        <time>2014-03-08T15:51:05.000Z</time>
      </trkpt>
      <trkpt lat="48.69366" lon="1.72071">
        <ele>167.19999694824</ele>
        <time>2014-03-08T15:51:10.000Z</time>
      </trkpt>
      <trkpt lat="48.6937" lon="1.72063">
        <ele>167.60000610352</ele>
        <time>2014-03-08T15:51:16.000Z</time>
      </trkpt>
      <trkpt lat="48.69382" lon="1.72054">
        <ele>167.80000305176</ele>
        <time>2014-03-08T15:51:22.000Z</time>
      </trkpt>
      <trkpt lat="48.69405" lon="1.72036">
        <ele>168.39999389648</ele>
        <time>2014-03-08T15:51:29.000Z</time>
      </trkpt>
      <trkpt lat="48.6942" lon="1.72022">
        <ele>169</ele>
        <time>2014-03-08T15:51:35.000Z</time>
      </trkpt>
      <trkpt lat="48.69428" lon="1.72013">
        <ele>169.19999694824</ele>
        <time>2014-03-08T15:51:42.000Z</time>
      </trkpt>
      <trkpt lat="48.6944" lon="1.72005">
        <ele>169</ele>
        <time>2014-03-08T15:51:47.000Z</time>
      </trkpt>
      <trkpt lat="48.69462" lon="1.7199">
        <ele>168.60000610352</ele>
        <time>2014-03-08T15:51:54.000Z</time>
      </trkpt>
      <trkpt lat="48.69467" lon="1.71984">
        <ele>168.80000305176</ele>
        <time>2014-03-08T15:51:58.000Z</time>
      </trkpt>
      <trkpt lat="48.69481" lon="1.71976">
        <ele>168.60000610352</ele>
        <time>2014-03-08T15:52:05.000Z</time>
      </trkpt>
      <trkpt lat="48.69497" lon="1.71965">
        <ele>168.60000610352</ele>
        <time>2014-03-08T15:52:11.000Z</time>
      </trkpt>
      <trkpt lat="48.69515" lon="1.71949">
        <ele>170</ele>
        <time>2014-03-08T15:52:17.000Z</time>
      </trkpt>
      <trkpt lat="48.69527" lon="1.71939">
        <ele>171</ele>
        <time>2014-03-08T15:52:22.000Z</time>
      </trkpt>
      <trkpt lat="48.69541" lon="1.71929">
        <ele>171.60000610352</ele>
        <time>2014-03-08T15:52:26.000Z</time>
      </trkpt>
      <trkpt lat="48.69555" lon="1.71919">
        <ele>172.19999694824</ele>
        <time>2014-03-08T15:52:30.000Z</time>
      </trkpt>
      <trkpt lat="48.69577" lon="1.71903">
        <ele>172.60000610352</ele>
        <time>2014-03-08T15:52:36.000Z</time>
      </trkpt>
      <trkpt lat="48.69592" lon="1.7189">
        <ele>173.19999694824</ele>
        <time>2014-03-08T15:52:41.000Z</time>
      </trkpt>
      <trkpt lat="48.69601" lon="1.71882">
        <ele>173.60000610352</ele>
        <time>2014-03-08T15:52:47.000Z</time>
      </trkpt>
      <trkpt lat="48.69607" lon="1.71876">
        <ele>173.80000305176</ele>
        <time>2014-03-08T15:52:52.000Z</time>
      </trkpt>
      <trkpt lat="48.69611" lon="1.71867">
        <ele>174</ele>
        <time>2014-03-08T15:52:58.000Z</time>
      </trkpt>
      <trkpt lat="48.6962" lon="1.71861">
        <ele>174.19999694824</ele>
        <time>2014-03-08T15:53:03.000Z</time>
      </trkpt>
      <trkpt lat="48.69622" lon="1.71857">
        <ele>174.19999694824</ele>
        <time>2014-03-08T15:53:07.000Z</time>
      </trkpt>
      <trkpt lat="48.69626" lon="1.71851">
        <ele>174.19999694824</ele>
        <time>2014-03-08T15:53:11.000Z</time>
      </trkpt>
      <trkpt lat="48.69633" lon="1.71844">
        <ele>174.39999389648</ele>
        <time>2014-03-08T15:53:17.000Z</time>
      </trkpt>
      <trkpt lat="48.69643" lon="1.71836">
        <ele>174.19999694824</ele>
        <time>2014-03-08T15:53:26.000Z</time>
      </trkpt>
      <trkpt lat="48.69644" lon="1.71835">
        <ele>174.19999694824</ele>
        <time>2014-03-08T15:53:27.000Z</time>
      </trkpt>
      <trkpt lat="48.69652" lon="1.71827">
        <ele>174.19999694824</ele>
        <time>2014-03-08T15:53:34.000Z</time>
      </trkpt>
      <trkpt lat="48.69655" lon="1.71825">
        <ele>174</ele>
        <time>2014-03-08T15:53:36.000Z</time>
      </trkpt>
      <trkpt lat="48.69664" lon="1.71824">
        <ele>174</ele>
        <time>2014-03-08T15:53:41.000Z</time>
      </trkpt>
      <trkpt lat="48.69673" lon="1.7182">
        <ele>173.80000305176</ele>
        <time>2014-03-08T15:53:47.000Z</time>
      </trkpt>
      <trkpt lat="48.69679" lon="1.71815">
        <ele>173.60000610352</ele>
        <time>2014-03-08T15:53:53.000Z</time>
      </trkpt>
      <trkpt lat="48.69685" lon="1.71809">
        <ele>173.39999389648</ele>
        <time>2014-03-08T15:53:58.000Z</time>
      </trkpt>
      <trkpt lat="48.6969" lon="1.71805">
        <ele>173.39999389648</ele>
        <time>2014-03-08T15:54:01.000Z</time>
      </trkpt>
      <trkpt lat="48.69698" lon="1.71798">
        <ele>173.39999389648</ele>
        <time>2014-03-08T15:54:08.000Z</time>
      </trkpt>
      <trkpt lat="48.69706" lon="1.71788">
        <ele>173.19999694824</ele>
        <time>2014-03-08T15:54:16.000Z</time>
      </trkpt>
      <trkpt lat="48.69713" lon="1.71779">
        <ele>173.39999389648</ele>
        <time>2014-03-08T15:54:23.000Z</time>
      </trkpt>
      <trkpt lat="48.69719" lon="1.71773">
        <ele>173.39999389648</ele>
        <time>2014-03-08T15:54:30.000Z</time>
      </trkpt>
      <trkpt lat="48.69724" lon="1.71767">
        <ele>173.39999389648</ele>
        <time>2014-03-08T15:54:36.000Z</time>
      </trkpt>
      <trkpt lat="48.69735" lon="1.71758">
        <ele>173.60000610352</ele>
        <time>2014-03-08T15:54:44.000Z</time>
      </trkpt>
      <trkpt lat="48.69739" lon="1.71757">
        <ele>173.80000305176</ele>
        <time>2014-03-08T15:54:46.000Z</time>
      </trkpt>
      <trkpt lat="48.69747" lon="1.71751">
        <ele>174</ele>
        <time>2014-03-08T15:54:52.000Z</time>
      </trkpt>
      <trkpt lat="48.69755" lon="1.71743">
        <ele>174</ele>
        <time>2014-03-08T15:54:59.000Z</time>
      </trkpt>
      <trkpt lat="48.69762" lon="1.71738">
        <ele>173.80000305176</ele>
        <time>2014-03-08T15:55:03.000Z</time>
      </trkpt>
      <trkpt lat="48.69771" lon="1.71733">
        <ele>173.60000610352</ele>
        <time>2014-03-08T15:55:08.000Z</time>
      </trkpt>
      <trkpt lat="48.69787" lon="1.71721">
        <ele>173.39999389648</ele>
        <time>2014-03-08T15:55:17.000Z</time>
      </trkpt>
      <trkpt lat="48.69793" lon="1.71712">
        <ele>173.39999389648</ele>
        <time>2014-03-08T15:55:24.000Z</time>
      </trkpt>
      <trkpt lat="48.69796" lon="1.71711">
        <ele>173.39999389648</ele>
        <time>2014-03-08T15:55:26.000Z</time>
      </trkpt>
      <trkpt lat="48.69806" lon="1.71714">
        <ele>173</ele>
        <time>2014-03-08T15:55:32.000Z</time>
      </trkpt>
      <trkpt lat="48.69816" lon="1.71719">
        <ele>172.80000305176</ele>
        <time>2014-03-08T15:55:36.000Z</time>
      </trkpt>
      <trkpt lat="48.6983" lon="1.71721">
        <ele>172.39999389648</ele>
        <time>2014-03-08T15:55:41.000Z</time>
      </trkpt>
      <trkpt lat="48.69842" lon="1.71728">
        <ele>172</ele>
        <time>2014-03-08T15:55:47.000Z</time>
      </trkpt>
      <trkpt lat="48.69858" lon="1.71745">
        <ele>171.39999389648</ele>
        <time>2014-03-08T15:55:54.000Z</time>
      </trkpt>
      <trkpt lat="48.69873" lon="1.71762">
        <ele>171</ele>
        <time>2014-03-08T15:56:00.000Z</time>
      </trkpt>
      <trkpt lat="48.6989" lon="1.71779">
        <ele>170.60000610352</ele>
        <time>2014-03-08T15:56:07.000Z</time>
      </trkpt>
      <trkpt lat="48.69912" lon="1.71803">
        <ele>170</ele>
        <time>2014-03-08T15:56:16.000Z</time>
      </trkpt>
      <trkpt lat="48.69919" lon="1.7181">
        <ele>170</ele>
        <time>2014-03-08T15:56:20.000Z</time>
      </trkpt>
      <trkpt lat="48.6993" lon="1.71821">
        <ele>170.39999389648</ele>
        <time>2014-03-08T15:56:25.000Z</time>
      </trkpt>
      <trkpt lat="48.69942" lon="1.71832">
        <ele>170.60000610352</ele>
        <time>2014-03-08T15:56:30.000Z</time>
      </trkpt>
      <trkpt lat="48.69958" lon="1.71846">
        <ele>171</ele>
        <time>2014-03-08T15:56:36.000Z</time>
      </trkpt>
      <trkpt lat="48.6997" lon="1.71856">
        <ele>171.19999694824</ele>
        <time>2014-03-08T15:56:42.000Z</time>
      </trkpt>
      <trkpt lat="48.69979" lon="1.71865">
        <ele>171.19999694824</ele>
        <time>2014-03-08T15:56:49.000Z</time>
      </trkpt>
      <trkpt lat="48.69986" lon="1.71872">
        <ele>171.19999694824</ele>
        <time>2014-03-08T15:56:55.000Z</time>
      </trkpt>
      <trkpt lat="48.69992" lon="1.71875">
        <ele>171.39999389648</ele>
        <time>2014-03-08T15:57:00.000Z</time>
      </trkpt>
      <trkpt lat="48.69996" lon="1.71879">
        <ele>171.39999389648</ele>
        <time>2014-03-08T15:57:05.000Z</time>
      </trkpt>
      <trkpt lat="48.70004" lon="1.7189">
        <ele>171.39999389648</ele>
        <time>2014-03-08T15:57:11.000Z</time>
      </trkpt>
      <trkpt lat="48.70016" lon="1.71902">
        <ele>171.39999389648</ele>
        <time>2014-03-08T15:57:19.000Z</time>
      </trkpt>
      <trkpt lat="48.7003" lon="1.71915">
        <ele>171.39999389648</ele>
        <time>2014-03-08T15:57:24.000Z</time>
      </trkpt>
      <trkpt lat="48.70056" lon="1.71941">
        <ele>171.60000610352</ele>
        <time>2014-03-08T15:57:32.000Z</time>
      </trkpt>
      <trkpt lat="48.70078" lon="1.71965">
        <ele>171.39999389648</ele>
        <time>2014-03-08T15:57:39.000Z</time>
      </trkpt>
      <trkpt lat="48.70103" lon="1.71991">
        <ele>171.39999389648</ele>
        <time>2014-03-08T15:57:47.000Z</time>
      </trkpt>
      <trkpt lat="48.7012" lon="1.72011">
        <ele>171.60000610352</ele>
        <time>2014-03-08T15:57:53.000Z</time>
      </trkpt>
      <trkpt lat="48.70138" lon="1.72032">
        <ele>172.19999694824</ele>
        <time>2014-03-08T15:57:58.000Z</time>
      </trkpt>
      <trkpt lat="48.70166" lon="1.72058">
        <ele>173.39999389648</ele>
        <time>2014-03-08T15:58:05.000Z</time>
      </trkpt>
      <trkpt lat="48.70191" lon="1.72081">
        <ele>176</ele>
        <time>2014-03-08T15:58:11.000Z</time>
      </trkpt>
      <trkpt lat="48.70208" lon="1.72098">
        <ele>177.80000305176</ele>
        <time>2014-03-08T15:58:15.000Z</time>
      </trkpt>
      <trkpt lat="48.70221" lon="1.7211">
        <ele>179.39999389648</ele>
        <time>2014-03-08T15:58:19.000Z</time>
      </trkpt>
      <trkpt lat="48.7023" lon="1.72118">
        <ele>180.39999389648</ele>
        <time>2014-03-08T15:58:22.000Z</time>
      </trkpt>
      <trkpt lat="48.70248" lon="1.72131">
        <ele>182.60000610352</ele>
        <time>2014-03-08T15:58:27.000Z</time>
      </trkpt>
      <trkpt lat="48.70258" lon="1.7214">
        <ele>183.39999389648</ele>
        <time>2014-03-08T15:58:30.000Z</time>
      </trkpt>
      <trkpt lat="48.70271" lon="1.72154">
        <ele>184.19999694824</ele>
        <time>2014-03-08T15:58:34.000Z</time>
      </trkpt>
      <trkpt lat="48.70281" lon="1.72168">
        <ele>184.80000305176</ele>
        <time>2014-03-08T15:58:38.000Z</time>
      </trkpt>
      <trkpt lat="48.703" lon="1.72159">
        <ele>185</ele>
        <time>2014-03-08T15:58:43.000Z</time>
      </trkpt>
      <trkpt lat="48.70315" lon="1.72148">
        <ele>185.19999694824</ele>
        <time>2014-03-08T15:58:47.000Z</time>
      </trkpt>
      <trkpt lat="48.70319" lon="1.72145">
        <ele>185.39999389648</ele>
        <time>2014-03-08T15:58:48.000Z</time>
      </trkpt>
      <trkpt lat="48.70345" lon="1.72125">
        <ele>185.39999389648</ele>
        <time>2014-03-08T15:58:54.000Z</time>
      </trkpt>
      <trkpt lat="48.70348" lon="1.72123">
        <ele>185.39999389648</ele>
        <time>2014-03-08T15:58:55.000Z</time>
      </trkpt>
      <trkpt lat="48.7038" lon="1.72102">
        <ele>185</ele>
        <time>2014-03-08T15:59:01.000Z</time>
      </trkpt>
      <trkpt lat="48.70407" lon="1.72086">
        <ele>185</ele>
        <time>2014-03-08T15:59:06.000Z</time>
      </trkpt>
      <trkpt lat="48.70427" lon="1.72074">
        <ele>185.39999389648</ele>
        <time>2014-03-08T15:59:10.000Z</time>
      </trkpt>
      <trkpt lat="48.7044" lon="1.72066">
        <ele>186</ele>
        <time>2014-03-08T15:59:13.000Z</time>
      </trkpt>
      <trkpt lat="48.7046" lon="1.72053">
        <ele>186.80000305176</ele>
        <time>2014-03-08T15:59:18.000Z</time>
      </trkpt>
      <trkpt lat="48.70472" lon="1.72045">
        <ele>187.19999694824</ele>
        <time>2014-03-08T15:59:22.000Z</time>
      </trkpt>
      <trkpt lat="48.70489" lon="1.72032">
        <ele>188.19999694824</ele>
        <time>2014-03-08T15:59:28.000Z</time>
      </trkpt>
      <trkpt lat="48.70502" lon="1.72025">
        <ele>188.80000305176</ele>
        <time>2014-03-08T15:59:33.000Z</time>
      </trkpt>
      <trkpt lat="48.70521" lon="1.72015">
        <ele>189</ele>
        <time>2014-03-08T15:59:38.000Z</time>
      </trkpt>
      <trkpt lat="48.70535" lon="1.72006">
        <ele>189.39999389648</ele>
        <time>2014-03-08T15:59:42.000Z</time>
      </trkpt>
      <trkpt lat="48.70542" lon="1.72">
        <ele>189.39999389648</ele>
        <time>2014-03-08T15:59:44.000Z</time>
      </trkpt>
      <trkpt lat="48.70558" lon="1.7199">
        <ele>189.39999389648</ele>
        <time>2014-03-08T15:59:49.000Z</time>
      </trkpt>
      <trkpt lat="48.70575" lon="1.71973">
        <ele>189</ele>
        <time>2014-03-08T15:59:55.000Z</time>
      </trkpt>
      <trkpt lat="48.70594" lon="1.71958">
        <ele>188.19999694824</ele>
        <time>2014-03-08T16:00:01.000Z</time>
      </trkpt>
      <trkpt lat="48.70609" lon="1.71947">
        <ele>188</ele>
        <time>2014-03-08T16:00:06.000Z</time>
      </trkpt>
      <trkpt lat="48.70625" lon="1.71937">
        <ele>187.80000305176</ele>
        <time>2014-03-08T16:00:12.000Z</time>
      </trkpt>
      <trkpt lat="48.7063" lon="1.71931">
        <ele>188</ele>
        <time>2014-03-08T16:00:16.000Z</time>
      </trkpt>
      <trkpt lat="48.70638" lon="1.71924">
        <ele>188.19999694824</ele>
        <time>2014-03-08T16:00:21.000Z</time>
      </trkpt>
      <trkpt lat="48.70641" lon="1.71922">
        <ele>188.19999694824</ele>
        <time>2014-03-08T16:00:23.000Z</time>
      </trkpt>
      <trkpt lat="48.70653" lon="1.71913">
        <ele>188.80000305176</ele>
        <time>2014-03-08T16:00:32.000Z</time>
      </trkpt>
      <trkpt lat="48.70661" lon="1.71906">
        <ele>189</ele>
        <time>2014-03-08T16:00:38.000Z</time>
      </trkpt>
      <trkpt lat="48.70668" lon="1.71899">
        <ele>189.19999694824</ele>
        <time>2014-03-08T16:00:43.000Z</time>
      </trkpt>
      <trkpt lat="48.7067" lon="1.71897">
        <ele>189.19999694824</ele>
        <time>2014-03-08T16:00:45.000Z</time>
      </trkpt>
      <trkpt lat="48.70683" lon="1.71892">
        <ele>189</ele>
        <time>2014-03-08T16:00:54.000Z</time>
      </trkpt>
      <trkpt lat="48.70685" lon="1.7189">
        <ele>189</ele>
        <time>2014-03-08T16:00:56.000Z</time>
      </trkpt>
      <trkpt lat="48.70693" lon="1.71881">
        <ele>189</ele>
        <time>2014-03-08T16:01:03.000Z</time>
      </trkpt>
      <trkpt lat="48.70696" lon="1.71877">
        <ele>189</ele>
        <time>2014-03-08T16:01:06.000Z</time>
      </trkpt>
      <trkpt lat="48.70704" lon="1.71868">
        <ele>188.80000305176</ele>
        <time>2014-03-08T16:01:13.000Z</time>
      </trkpt>
      <trkpt lat="48.70711" lon="1.71858">
        <ele>188.80000305176</ele>
        <time>2014-03-08T16:01:20.000Z</time>
      </trkpt>
      <trkpt lat="48.70718" lon="1.71848">
        <ele>188.60000610352</ele>
        <time>2014-03-08T16:01:27.000Z</time>
      </trkpt>
      <trkpt lat="48.70726" lon="1.71844">
        <ele>188.60000610352</ele>
        <time>2014-03-08T16:01:32.000Z</time>
      </trkpt>
      <trkpt lat="48.70738" lon="1.71839">
        <ele>188.19999694824</ele>
        <time>2014-03-08T16:01:39.000Z</time>
      </trkpt>
      <trkpt lat="48.70747" lon="1.71829">
        <ele>188</ele>
        <time>2014-03-08T16:01:45.000Z</time>
      </trkpt>
      <trkpt lat="48.70751" lon="1.71822">
        <ele>187.80000305176</ele>
        <time>2014-03-08T16:01:51.000Z</time>
      </trkpt>
      <trkpt lat="48.70754" lon="1.7182">
        <ele>187.80000305176</ele>
        <time>2014-03-08T16:01:53.000Z</time>
      </trkpt>
      <trkpt lat="48.70756" lon="1.71818">
        <ele>187.60000610352</ele>
        <time>2014-03-08T16:01:55.000Z</time>
      </trkpt>
      <trkpt lat="48.70769" lon="1.71811">
        <ele>187.19999694824</ele>
        <time>2014-03-08T16:02:04.000Z</time>
      </trkpt>
      <trkpt lat="48.70777" lon="1.71806">
        <ele>187</ele>
        <time>2014-03-08T16:02:10.000Z</time>
      </trkpt>
      <trkpt lat="48.70787" lon="1.71798">
        <ele>186.60000610352</ele>
        <time>2014-03-08T16:02:19.000Z</time>
      </trkpt>
      <trkpt lat="48.70794" lon="1.71789">
        <ele>186.19999694824</ele>
        <time>2014-03-08T16:02:27.000Z</time>
      </trkpt>
      <trkpt lat="48.70805" lon="1.71782">
        <ele>185.60000610352</ele>
        <time>2014-03-08T16:02:34.000Z</time>
      </trkpt>
      <trkpt lat="48.70812" lon="1.71773">
        <ele>185.19999694824</ele>
        <time>2014-03-08T16:02:40.000Z</time>
      </trkpt>
      <trkpt lat="48.70814" lon="1.71773">
        <ele>185.19999694824</ele>
        <time>2014-03-08T16:02:43.000Z</time>
      </trkpt>
      <trkpt lat="48.70818" lon="1.71769">
        <ele>185</ele>
        <time>2014-03-08T16:02:49.000Z</time>
      </trkpt>
      <trkpt lat="48.70822" lon="1.71765">
        <ele>184.80000305176</ele>
        <time>2014-03-08T16:02:53.000Z</time>
      </trkpt>
      <trkpt lat="48.7083" lon="1.71752">
        <ele>184.19999694824</ele>
        <time>2014-03-08T16:03:01.000Z</time>
      </trkpt>
      <trkpt lat="48.70837" lon="1.71747">
        <ele>184.19999694824</ele>
        <time>2014-03-08T16:03:07.000Z</time>
      </trkpt>
      <trkpt lat="48.70843" lon="1.7174">
        <ele>184.60000610352</ele>
        <time>2014-03-08T16:03:13.000Z</time>
      </trkpt>
      <trkpt lat="48.70851" lon="1.71732">
        <ele>185.19999694824</ele>
        <time>2014-03-08T16:03:20.000Z</time>
      </trkpt>
      <trkpt lat="48.70863" lon="1.71725">
        <ele>185.80000305176</ele>
        <time>2014-03-08T16:03:29.000Z</time>
      </trkpt>
      <trkpt lat="48.70874" lon="1.71714">
        <ele>186.39999389648</ele>
        <time>2014-03-08T16:03:39.000Z</time>
      </trkpt>
      <trkpt lat="48.70884" lon="1.71703">
        <ele>186.60000610352</ele>
        <time>2014-03-08T16:03:48.000Z</time>
      </trkpt>
      <trkpt lat="48.70891" lon="1.71694">
        <ele>186.80000305176</ele>
        <time>2014-03-08T16:03:55.000Z</time>
      </trkpt>
      <trkpt lat="48.70904" lon="1.71684">
        <ele>187.19999694824</ele>
        <time>2014-03-08T16:04:04.000Z</time>
      </trkpt>
      <trkpt lat="48.70909" lon="1.71682">
        <ele>187.19999694824</ele>
        <time>2014-03-08T16:04:07.000Z</time>
      </trkpt>
      <trkpt lat="48.70917" lon="1.71674">
        <ele>187.39999389648</ele>
        <time>2014-03-08T16:04:14.000Z</time>
      </trkpt>
      <trkpt lat="48.70929" lon="1.71667">
        <ele>186.80000305176</ele>
        <time>2014-03-08T16:04:22.000Z</time>
      </trkpt>
      <trkpt lat="48.70935" lon="1.71661">
        <ele>186.80000305176</ele>
        <time>2014-03-08T16:04:29.000Z</time>
      </trkpt>
      <trkpt lat="48.7094" lon="1.71657">
        <ele>186.60000610352</ele>
        <time>2014-03-08T16:04:33.000Z</time>
      </trkpt>
      <trkpt lat="48.70952" lon="1.71645">
        <ele>186.39999389648</ele>
        <time>2014-03-08T16:04:43.000Z</time>
      </trkpt>
      <trkpt lat="48.70961" lon="1.71636">
        <ele>186</ele>
        <time>2014-03-08T16:04:51.000Z</time>
      </trkpt>
      <trkpt lat="48.70962" lon="1.71634">
        <ele>186</ele>
        <time>2014-03-08T16:04:52.000Z</time>
      </trkpt>
      <trkpt lat="48.7097" lon="1.71623">
        <ele>185.60000610352</ele>
        <time>2014-03-08T16:04:59.000Z</time>
      </trkpt>
      <trkpt lat="48.70982" lon="1.71619">
        <ele>185</ele>
        <time>2014-03-08T16:05:07.000Z</time>
      </trkpt>
      <trkpt lat="48.70987" lon="1.71617">
        <ele>184.80000305176</ele>
        <time>2014-03-08T16:05:12.000Z</time>
      </trkpt>
      <trkpt lat="48.70993" lon="1.71614">
        <ele>184.39999389648</ele>
        <time>2014-03-08T16:05:16.000Z</time>
      </trkpt>
      <trkpt lat="48.70996" lon="1.71614">
        <ele>184.19999694824</ele>
        <time>2014-03-08T16:05:21.000Z</time>
      </trkpt>
      <trkpt lat="48.71001" lon="1.71611">
        <ele>183.80000305176</ele>
        <time>2014-03-08T16:05:35.000Z</time>
      </trkpt>
      <trkpt lat="48.71004" lon="1.71607">
        <ele>183.19999694824</ele>
        <time>2014-03-08T16:05:37.000Z</time>
      </trkpt>
      <trkpt lat="48.71012" lon="1.71603">
        <ele>181.80000305176</ele>
        <time>2014-03-08T16:05:42.000Z</time>
      </trkpt>
      <trkpt lat="48.71013" lon="1.71602">
        <ele>181.60000610352</ele>
        <time>2014-03-08T16:05:43.000Z</time>
      </trkpt>
      <trkpt lat="48.71025" lon="1.71599">
        <ele>179.60000610352</ele>
        <time>2014-03-08T16:05:52.000Z</time>
      </trkpt>
      <trkpt lat="48.71033" lon="1.71602">
        <ele>178.60000610352</ele>
        <time>2014-03-08T16:05:58.000Z</time>
      </trkpt>
      <trkpt lat="48.71042" lon="1.71608">
        <ele>177.39999389648</ele>
        <time>2014-03-08T16:06:05.000Z</time>
      </trkpt>
      <trkpt lat="48.71046" lon="1.71612">
        <ele>177</ele>
        <time>2014-03-08T16:06:09.000Z</time>
      </trkpt>
      <trkpt lat="48.71052" lon="1.71621">
        <ele>176.60000610352</ele>
        <time>2014-03-08T16:06:15.000Z</time>
      </trkpt>
      <trkpt lat="48.71055" lon="1.71623">
        <ele>176.39999389648</ele>
        <time>2014-03-08T16:06:17.000Z</time>
      </trkpt>
      <trkpt lat="48.71063" lon="1.71631">
        <ele>175.80000305176</ele>
        <time>2014-03-08T16:06:24.000Z</time>
      </trkpt>
      <trkpt lat="48.71069" lon="1.71637">
        <ele>175.39999389648</ele>
        <time>2014-03-08T16:06:29.000Z</time>
      </trkpt>
      <trkpt lat="48.7108" lon="1.71652">
        <ele>175.19999694824</ele>
        <time>2014-03-08T16:06:37.000Z</time>
      </trkpt>
      <trkpt lat="48.71092" lon="1.71661">
        <ele>173.80000305176</ele>
        <time>2014-03-08T16:06:46.000Z</time>
      </trkpt>
      <trkpt lat="48.71095" lon="1.71662">
        <ele>173.19999694824</ele>
        <time>2014-03-08T16:06:52.000Z</time>
      </trkpt>
      <trkpt lat="48.71097" lon="1.71656">
        <ele>172.39999389648</ele>
        <time>2014-03-08T16:07:04.000Z</time>
      </trkpt>
      <trkpt lat="48.71098" lon="1.71659">
        <ele>172.39999389648</ele>
        <time>2014-03-08T16:07:16.000Z</time>
      </trkpt>
      <trkpt lat="48.71113" lon="1.71669">
        <ele>170.19999694824</ele>
        <time>2014-03-08T16:07:23.000Z</time>
      </trkpt>
      <trkpt lat="48.71122" lon="1.71676">
        <ele>169</ele>
        <time>2014-03-08T16:07:30.000Z</time>
      </trkpt>
      <trkpt lat="48.71129" lon="1.71683">
        <ele>168.39999389648</ele>
        <time>2014-03-08T16:07:36.000Z</time>
      </trkpt>
      <trkpt lat="48.7113" lon="1.71684">
        <ele>168.39999389648</ele>
        <time>2014-03-08T16:07:37.000Z</time>
      </trkpt>
      <trkpt lat="48.71135" lon="1.71695">
        <ele>168.39999389648</ele>
        <time>2014-03-08T16:07:43.000Z</time>
      </trkpt>
      <trkpt lat="48.71141" lon="1.71701">
        <ele>168.19999694824</ele>
        <time>2014-03-08T16:07:47.000Z</time>
      </trkpt>
      <trkpt lat="48.71147" lon="1.71711">
        <ele>168.39999389648</ele>
        <time>2014-03-08T16:07:53.000Z</time>
      </trkpt>
      <trkpt lat="48.71156" lon="1.71719">
        <ele>167.80000305176</ele>
        <time>2014-03-08T16:07:59.000Z</time>
      </trkpt>
      <trkpt lat="48.71159" lon="1.71727">
        <ele>168.19999694824</ele>
        <time>2014-03-08T16:08:04.000Z</time>
      </trkpt>
      <trkpt lat="48.71159" lon="1.71728">
        <ele>168.39999389648</ele>
        <time>2014-03-08T16:08:06.000Z</time>
      </trkpt>
      <trkpt lat="48.71164" lon="1.71729">
        <ele>167.60000610352</ele>
        <time>2014-03-08T16:08:14.000Z</time>
      </trkpt>
      <trkpt lat="48.7117" lon="1.71734">
        <ele>167.39999389648</ele>
        <time>2014-03-08T16:08:19.000Z</time>
      </trkpt>
      <trkpt lat="48.71173" lon="1.71741">
        <ele>167.60000610352</ele>
        <time>2014-03-08T16:08:24.000Z</time>
      </trkpt>
      <trkpt lat="48.71181" lon="1.71754">
        <ele>167.39999389648</ele>
        <time>2014-03-08T16:08:32.000Z</time>
      </trkpt>
      <trkpt lat="48.71183" lon="1.71764">
        <ele>167.60000610352</ele>
        <time>2014-03-08T16:08:39.000Z</time>
      </trkpt>
      <trkpt lat="48.71197" lon="1.71776">
        <ele>165.60000610352</ele>
        <time>2014-03-08T16:08:47.000Z</time>
      </trkpt>
      <trkpt lat="48.71208" lon="1.71783">
        <ele>164</ele>
        <time>2014-03-08T16:08:55.000Z</time>
      </trkpt>
      <trkpt lat="48.71219" lon="1.71788">
        <ele>162.39999389648</ele>
        <time>2014-03-08T16:09:02.000Z</time>
      </trkpt>
      <trkpt lat="48.71231" lon="1.71794">
        <ele>160.60000610352</ele>
        <time>2014-03-08T16:09:09.000Z</time>
      </trkpt>
      <trkpt lat="48.71237" lon="1.71794">
        <ele>159.39999389648</ele>
        <time>2014-03-08T16:09:16.000Z</time>
      </trkpt>
      <trkpt lat="48.71246" lon="1.71796">
        <ele>158</ele>
        <time>2014-03-08T16:09:22.000Z</time>
      </trkpt>
      <trkpt lat="48.71253" lon="1.71797">
        <ele>157.19999694824</ele>
        <time>2014-03-08T16:09:28.000Z</time>
      </trkpt>
      <trkpt lat="48.7126" lon="1.71798">
        <ele>156.39999389648</ele>
        <time>2014-03-08T16:09:34.000Z</time>
      </trkpt>
      <trkpt lat="48.71263" lon="1.71798">
        <ele>156.19999694824</ele>
        <time>2014-03-08T16:09:36.000Z</time>
      </trkpt>
      <trkpt lat="48.71265" lon="1.71799">
        <ele>156</ele>
        <time>2014-03-08T16:09:40.000Z</time>
      </trkpt>
      <trkpt lat="48.7127" lon="1.71798">
        <ele>155.39999389648</ele>
        <time>2014-03-08T16:10:05.000Z</time>
      </trkpt>
      <trkpt lat="48.71272" lon="1.718">
        <ele>155.19999694824</ele>
        <time>2014-03-08T16:10:09.000Z</time>
      </trkpt>
      <trkpt lat="48.71272" lon="1.71801">
        <ele>155.39999389648</ele>
        <time>2014-03-08T16:10:11.000Z</time>
      </trkpt>
      <trkpt lat="48.71278" lon="1.718">
        <ele>154.60000610352</ele>
        <time>2014-03-08T16:10:34.000Z</time>
      </trkpt>
      <trkpt lat="48.71287" lon="1.71801">
        <ele>153.80000305176</ele>
        <time>2014-03-08T16:10:38.000Z</time>
      </trkpt>
      <trkpt lat="48.71301" lon="1.71807">
        <ele>152.60000610352</ele>
        <time>2014-03-08T16:10:46.000Z</time>
      </trkpt>
      <trkpt lat="48.71307" lon="1.7181">
        <ele>152</ele>
        <time>2014-03-08T16:10:50.000Z</time>
      </trkpt>
      <trkpt lat="48.71318" lon="1.71817">
        <ele>151.19999694824</ele>
        <time>2014-03-08T16:10:58.000Z</time>
      </trkpt>
      <trkpt lat="48.71322" lon="1.71823">
        <ele>151</ele>
        <time>2014-03-08T16:11:02.000Z</time>
      </trkpt>
      <trkpt lat="48.71333" lon="1.71828">
        <ele>149.80000305176</ele>
        <time>2014-03-08T16:11:09.000Z</time>
      </trkpt>
      <trkpt lat="48.71338" lon="1.71835">
        <ele>149.80000305176</ele>
        <time>2014-03-08T16:11:14.000Z</time>
      </trkpt>
      <trkpt lat="48.71333" lon="1.71844">
        <ele>150</ele>
        <time>2014-03-08T16:11:21.000Z</time>
      </trkpt>
      <trkpt lat="48.71329" lon="1.71852">
        <ele>150.19999694824</ele>
        <time>2014-03-08T16:11:25.000Z</time>
      </trkpt>
      <trkpt lat="48.71325" lon="1.71861">
        <ele>150.60000610352</ele>
        <time>2014-03-08T16:11:30.000Z</time>
      </trkpt>
      <trkpt lat="48.71325" lon="1.71864">
        <ele>150.60000610352</ele>
        <time>2014-03-08T16:11:31.000Z</time>
      </trkpt>
      <trkpt lat="48.71322" lon="1.71873">
        <ele>150.80000305176</ele>
        <time>2014-03-08T16:11:35.000Z</time>
      </trkpt>
      <trkpt lat="48.71317" lon="1.71884">
        <ele>151.19999694824</ele>
        <time>2014-03-08T16:11:41.000Z</time>
      </trkpt>
      <trkpt lat="48.71317" lon="1.71887">
        <ele>151.19999694824</ele>
        <time>2014-03-08T16:11:42.000Z</time>
      </trkpt>
      <trkpt lat="48.71313" lon="1.719">
        <ele>151.39999389648</ele>
        <time>2014-03-08T16:11:48.000Z</time>
      </trkpt>
      <trkpt lat="48.71311" lon="1.71908">
        <ele>151.60000610352</ele>
        <time>2014-03-08T16:11:51.000Z</time>
      </trkpt>
      <trkpt lat="48.71312" lon="1.71921">
        <ele>151.19999694824</ele>
        <time>2014-03-08T16:11:56.000Z</time>
      </trkpt>
      <trkpt lat="48.71313" lon="1.71931">
        <ele>150.80000305176</ele>
        <time>2014-03-08T16:12:00.000Z</time>
      </trkpt>
      <trkpt lat="48.71314" lon="1.71945">
        <ele>150.39999389648</ele>
        <time>2014-03-08T16:12:06.000Z</time>
      </trkpt>
      <trkpt lat="48.71316" lon="1.71955">
        <ele>150</ele>
        <time>2014-03-08T16:12:11.000Z</time>
      </trkpt>
      <trkpt lat="48.71318" lon="1.71959">
        <ele>149.60000610352</ele>
        <time>2014-03-08T16:12:13.000Z</time>
      </trkpt>
      <trkpt lat="48.71319" lon="1.71961">
        <ele>149.39999389648</ele>
        <time>2014-03-08T16:12:17.000Z</time>
      </trkpt>
      <trkpt lat="48.71324" lon="1.71962">
        <ele>148.80000305176</ele>
        <time>2014-03-08T16:12:24.000Z</time>
      </trkpt>
      <trkpt lat="48.71327" lon="1.71963">
        <ele>148.60000610352</ele>
        <time>2014-03-08T16:12:27.000Z</time>
      </trkpt>
      <trkpt lat="48.71331" lon="1.71963">
        <ele>148.19999694824</ele>
        <time>2014-03-08T16:12:34.000Z</time>
      </trkpt>
      <trkpt lat="48.71339" lon="1.71973">
        <ele>147.39999389648</ele>
        <time>2014-03-08T16:12:38.000Z</time>
      </trkpt>
      <trkpt lat="48.71349" lon="1.71988">
        <ele>146.80000305176</ele>
        <time>2014-03-08T16:12:43.000Z</time>
      </trkpt>
      <trkpt lat="48.71371" lon="1.72005">
        <ele>146</ele>
        <time>2014-03-08T16:12:50.000Z</time>
      </trkpt>
      <trkpt lat="48.71387" lon="1.72017">
        <ele>145.60000610352</ele>
        <time>2014-03-08T16:12:55.000Z</time>
      </trkpt>
      <trkpt lat="48.714" lon="1.7203">
        <ele>144.80000305176</ele>
        <time>2014-03-08T16:12:59.000Z</time>
      </trkpt>
      <trkpt lat="48.71412" lon="1.72051">
        <ele>143.80000305176</ele>
        <time>2014-03-08T16:13:04.000Z</time>
      </trkpt>
      <trkpt lat="48.71419" lon="1.72068">
        <ele>143</ele>
        <time>2014-03-08T16:13:08.000Z</time>
      </trkpt>
      <trkpt lat="48.7142" lon="1.72075">
        <ele>143</ele>
        <time>2014-03-08T16:13:10.000Z</time>
      </trkpt>
      <trkpt lat="48.71424" lon="1.72086">
        <ele>142.80000305176</ele>
        <time>2014-03-08T16:13:14.000Z</time>
      </trkpt>
      <trkpt lat="48.71423" lon="1.72093">
        <ele>143</ele>
        <time>2014-03-08T16:13:16.000Z</time>
      </trkpt>
      <trkpt lat="48.71432" lon="1.72107">
        <ele>143.19999694824</ele>
        <time>2014-03-08T16:13:21.000Z</time>
      </trkpt>
      <trkpt lat="48.71433" lon="1.72136">
        <ele>144.19999694824</ele>
        <time>2014-03-08T16:13:27.000Z</time>
      </trkpt>
      <trkpt lat="48.71437" lon="1.72169">
        <ele>144.80000305176</ele>
        <time>2014-03-08T16:13:33.000Z</time>
      </trkpt>
      <trkpt lat="48.71448" lon="1.72182">
        <ele>143</ele>
        <time>2014-03-08T16:13:37.000Z</time>
      </trkpt>
      <trkpt lat="48.71465" lon="1.72203">
        <ele>140.80000305176</ele>
        <time>2014-03-08T16:13:43.000Z</time>
      </trkpt>
      <trkpt lat="48.71477" lon="1.72231">
        <ele>139</ele>
        <time>2014-03-08T16:13:49.000Z</time>
      </trkpt>
      <trkpt lat="48.71484" lon="1.72253">
        <ele>138.19999694824</ele>
        <time>2014-03-08T16:13:55.000Z</time>
      </trkpt>
      <trkpt lat="48.71488" lon="1.72286">
        <ele>138.19999694824</ele>
        <time>2014-03-08T16:14:01.000Z</time>
      </trkpt>
      <trkpt lat="48.7149" lon="1.72321">
        <ele>138.39999389648</ele>
        <time>2014-03-08T16:14:07.000Z</time>
      </trkpt>
      <trkpt lat="48.7149" lon="1.72356">
        <ele>138.80000305176</ele>
        <time>2014-03-08T16:14:13.000Z</time>
      </trkpt>
      <trkpt lat="48.7149" lon="1.72387">
        <ele>139.19999694824</ele>
        <time>2014-03-08T16:14:18.000Z</time>
      </trkpt>
      <trkpt lat="48.7149" lon="1.72412">
        <ele>139.60000610352</ele>
        <time>2014-03-08T16:14:23.000Z</time>
      </trkpt>
      <trkpt lat="48.71493" lon="1.72443">
        <ele>140</ele>
        <time>2014-03-08T16:14:29.000Z</time>
      </trkpt>
      <trkpt lat="48.71494" lon="1.72469">
        <ele>140.60000610352</ele>
        <time>2014-03-08T16:14:34.000Z</time>
      </trkpt>
      <trkpt lat="48.71495" lon="1.72494">
        <ele>141.19999694824</ele>
        <time>2014-03-08T16:14:39.000Z</time>
      </trkpt>
      <trkpt lat="48.715" lon="1.72526">
        <ele>141.39999389648</ele>
        <time>2014-03-08T16:14:45.000Z</time>
      </trkpt>
      <trkpt lat="48.71502" lon="1.7255">
        <ele>141.39999389648</ele>
        <time>2014-03-08T16:14:50.000Z</time>
      </trkpt>
      <trkpt lat="48.71507" lon="1.72588">
        <ele>141.80000305176</ele>
        <time>2014-03-08T16:14:57.000Z</time>
      </trkpt>
      <trkpt lat="48.71509" lon="1.72613">
        <ele>142.19999694824</ele>
        <time>2014-03-08T16:15:02.000Z</time>
      </trkpt>
      <trkpt lat="48.71515" lon="1.72634">
        <ele>142.39999389648</ele>
        <time>2014-03-08T16:15:06.000Z</time>
      </trkpt>
      <trkpt lat="48.71523" lon="1.7266">
        <ele>142.80000305176</ele>
        <time>2014-03-08T16:15:11.000Z</time>
      </trkpt>
      <trkpt lat="48.71536" lon="1.72697">
        <ele>142.80000305176</ele>
        <time>2014-03-08T16:15:18.000Z</time>
      </trkpt>
      <trkpt lat="48.71551" lon="1.72728">
        <ele>142.60000610352</ele>
        <time>2014-03-08T16:15:25.000Z</time>
      </trkpt>
      <trkpt lat="48.71561" lon="1.7275">
        <ele>142.39999389648</ele>
        <time>2014-03-08T16:15:30.000Z</time>
      </trkpt>
      <trkpt lat="48.71572" lon="1.72776">
        <ele>141.39999389648</ele>
        <time>2014-03-08T16:15:36.000Z</time>
      </trkpt>
      <trkpt lat="48.71581" lon="1.72795">
        <ele>140.60000610352</ele>
        <time>2014-03-08T16:15:41.000Z</time>
      </trkpt>
      <trkpt lat="48.71594" lon="1.72813">
        <ele>140</ele>
        <time>2014-03-08T16:15:46.000Z</time>
      </trkpt>
      <trkpt lat="48.71602" lon="1.72829">
        <ele>139.39999389648</ele>
        <time>2014-03-08T16:15:50.000Z</time>
      </trkpt>
      <trkpt lat="48.71613" lon="1.72851">
        <ele>139</ele>
        <time>2014-03-08T16:15:54.000Z</time>
      </trkpt>
      <trkpt lat="48.7162" lon="1.72869">
        <ele>139</ele>
        <time>2014-03-08T16:15:58.000Z</time>
      </trkpt>
      <trkpt lat="48.71627" lon="1.72887">
        <ele>138.80000305176</ele>
        <time>2014-03-08T16:16:03.000Z</time>
      </trkpt>
      <trkpt lat="48.71635" lon="1.72909">
        <ele>138.39999389648</ele>
        <time>2014-03-08T16:16:08.000Z</time>
      </trkpt>
      <trkpt lat="48.71641" lon="1.72925">
        <ele>138.39999389648</ele>
        <time>2014-03-08T16:16:14.000Z</time>
      </trkpt>
      <trkpt lat="48.71649" lon="1.7294">
        <ele>138.19999694824</ele>
        <time>2014-03-08T16:16:20.000Z</time>
      </trkpt>
      <trkpt lat="48.71654" lon="1.72955">
        <ele>138</ele>
        <time>2014-03-08T16:16:26.000Z</time>
      </trkpt>
      <trkpt lat="48.7166" lon="1.72973">
        <ele>138</ele>
        <time>2014-03-08T16:16:33.000Z</time>
      </trkpt>
      <trkpt lat="48.71667" lon="1.72985">
        <ele>137.80000305176</ele>
        <time>2014-03-08T16:16:40.000Z</time>
      </trkpt>
      <trkpt lat="48.71672" lon="1.73001">
        <ele>137.80000305176</ele>
        <time>2014-03-08T16:16:47.000Z</time>
      </trkpt>
      <trkpt lat="48.71676" lon="1.73017">
        <ele>137.60000610352</ele>
        <time>2014-03-08T16:16:54.000Z</time>
      </trkpt>
      <trkpt lat="48.71678" lon="1.73034">
        <ele>137.80000305176</ele>
        <time>2014-03-08T16:17:01.000Z</time>
      </trkpt>
      <trkpt lat="48.7168" lon="1.73044">
        <ele>137.80000305176</ele>
        <time>2014-03-08T16:17:06.000Z</time>
      </trkpt>
      <trkpt lat="48.71678" lon="1.73058">
        <ele>138.19999694824</ele>
        <time>2014-03-08T16:17:12.000Z</time>
      </trkpt>
      <trkpt lat="48.71678" lon="1.73061">
        <ele>138.19999694824</ele>
        <time>2014-03-08T16:17:13.000Z</time>
      </trkpt>
      <trkpt lat="48.7168" lon="1.73071">
        <ele>138.19999694824</ele>
        <time>2014-03-08T16:17:17.000Z</time>
      </trkpt>
      <trkpt lat="48.71686" lon="1.73091">
        <ele>138</ele>
        <time>2014-03-08T16:17:25.000Z</time>
      </trkpt>
      <trkpt lat="48.71687" lon="1.73101">
        <ele>137.60000610352</ele>
        <time>2014-03-08T16:17:29.000Z</time>
      </trkpt>
      <trkpt lat="48.71691" lon="1.73123">
        <ele>137</ele>
        <time>2014-03-08T16:17:38.000Z</time>
      </trkpt>
      <trkpt lat="48.71695" lon="1.73142">
        <ele>136.39999389648</ele>
        <time>2014-03-08T16:17:46.000Z</time>
      </trkpt>
      <trkpt lat="48.71698" lon="1.7316">
        <ele>136</ele>
        <time>2014-03-08T16:17:54.000Z</time>
      </trkpt>
      <trkpt lat="48.71699" lon="1.73162">
        <ele>136</ele>
        <time>2014-03-08T16:17:55.000Z</time>
      </trkpt>
      <trkpt lat="48.71699" lon="1.73171">
        <ele>135.80000305176</ele>
        <time>2014-03-08T16:17:59.000Z</time>
      </trkpt>
      <trkpt lat="48.71703" lon="1.73195">
        <ele>135.80000305176</ele>
        <time>2014-03-08T16:18:09.000Z</time>
      </trkpt>
      <trkpt lat="48.71704" lon="1.73205">
        <ele>136</ele>
        <time>2014-03-08T16:18:13.000Z</time>
      </trkpt>
      <trkpt lat="48.71705" lon="1.73217">
        <ele>136</ele>
        <time>2014-03-08T16:18:19.000Z</time>
      </trkpt>
      <trkpt lat="48.71708" lon="1.73241">
        <ele>136</ele>
        <time>2014-03-08T16:18:29.000Z</time>
      </trkpt>
      <trkpt lat="48.71709" lon="1.73253">
        <ele>136</ele>
        <time>2014-03-08T16:18:35.000Z</time>
      </trkpt>
      <trkpt lat="48.71711" lon="1.73268">
        <ele>136</ele>
        <time>2014-03-08T16:18:41.000Z</time>
      </trkpt>
      <trkpt lat="48.71714" lon="1.73283">
        <ele>136</ele>
        <time>2014-03-08T16:18:48.000Z</time>
      </trkpt>
      <trkpt lat="48.71714" lon="1.73293">
        <ele>136</ele>
        <time>2014-03-08T16:18:53.000Z</time>
      </trkpt>
      <trkpt lat="48.71717" lon="1.7331">
        <ele>136</ele>
        <time>2014-03-08T16:19:01.000Z</time>
      </trkpt>
      <trkpt lat="48.71721" lon="1.73326">
        <ele>136</ele>
        <time>2014-03-08T16:19:08.000Z</time>
      </trkpt>
      <trkpt lat="48.71725" lon="1.73347">
        <ele>136.19999694824</ele>
        <time>2014-03-08T16:19:17.000Z</time>
      </trkpt>
      <trkpt lat="48.71727" lon="1.73357">
        <ele>136.39999389648</ele>
        <time>2014-03-08T16:19:23.000Z</time>
      </trkpt>
      <trkpt lat="48.71731" lon="1.7337">
        <ele>136.60000610352</ele>
        <time>2014-03-08T16:19:29.000Z</time>
      </trkpt>
      <trkpt lat="48.71737" lon="1.73386">
        <ele>136.80000305176</ele>
        <time>2014-03-08T16:19:36.000Z</time>
      </trkpt>
      <trkpt lat="48.71741" lon="1.73401">
        <ele>137</ele>
        <time>2014-03-08T16:19:43.000Z</time>
      </trkpt>
      <trkpt lat="48.71743" lon="1.73414">
        <ele>137.19999694824</ele>
        <time>2014-03-08T16:19:49.000Z</time>
      </trkpt>
      <trkpt lat="48.71744" lon="1.73426">
        <ele>137.19999694824</ele>
        <time>2014-03-08T16:19:55.000Z</time>
      </trkpt>
      <trkpt lat="48.71747" lon="1.73442">
        <ele>137.19999694824</ele>
        <time>2014-03-08T16:20:03.000Z</time>
      </trkpt>
      <trkpt lat="48.71752" lon="1.73462">
        <ele>137</ele>
        <time>2014-03-08T16:20:12.000Z</time>
      </trkpt>
      <trkpt lat="48.71755" lon="1.7348">
        <ele>136.80000305176</ele>
        <time>2014-03-08T16:20:19.000Z</time>
      </trkpt>
      <trkpt lat="48.71755" lon="1.73486">
        <ele>136.80000305176</ele>
        <time>2014-03-08T16:20:21.000Z</time>
      </trkpt>
      <trkpt lat="48.71755" lon="1.73497">
        <ele>136.80000305176</ele>
        <time>2014-03-08T16:20:25.000Z</time>
      </trkpt>
      <trkpt lat="48.71752" lon="1.73503">
        <ele>137</ele>
        <time>2014-03-08T16:20:30.000Z</time>
      </trkpt>
      <trkpt lat="48.71752" lon="1.73503">
        <ele>137</ele>
        <time>2014-03-08T16:20:32.000Z</time>
      </trkpt>
      <trkpt lat="48.71746" lon="1.73507">
        <ele>137.39999389648</ele>
        <time>2014-03-08T16:20:46.000Z</time>
      </trkpt>
      <trkpt lat="48.71736" lon="1.73506">
        <ele>137.60000610352</ele>
        <time>2014-03-08T16:20:51.000Z</time>
      </trkpt>
      <trkpt lat="48.71726" lon="1.73508">
        <ele>138</ele>
        <time>2014-03-08T16:20:58.000Z</time>
      </trkpt>
      <trkpt lat="48.71715" lon="1.73509">
        <ele>138.39999389648</ele>
        <time>2014-03-08T16:21:05.000Z</time>
      </trkpt>
      <trkpt lat="48.71714" lon="1.73509">
        <ele>138.39999389648</ele>
        <time>2014-03-08T16:21:06.000Z</time>
      </trkpt>
      <trkpt lat="48.717" lon="1.73511">
        <ele>139</ele>
        <time>2014-03-08T16:21:15.000Z</time>
      </trkpt>
      <trkpt lat="48.71692" lon="1.73513">
        <ele>139.19999694824</ele>
        <time>2014-03-08T16:21:21.000Z</time>
      </trkpt>
      <trkpt lat="48.71688" lon="1.73514">
        <ele>139.39999389648</ele>
        <time>2014-03-08T16:21:24.000Z</time>
      </trkpt>
      <trkpt lat="48.7168" lon="1.73517">
        <ele>139.60000610352</ele>
        <time>2014-03-08T16:21:29.000Z</time>
      </trkpt>
      <trkpt lat="48.71675" lon="1.73519">
        <ele>139.80000305176</ele>
        <time>2014-03-08T16:21:33.000Z</time>
      </trkpt>
      <trkpt lat="48.71664" lon="1.73527">
        <ele>140.19999694824</ele>
        <time>2014-03-08T16:21:42.000Z</time>
      </trkpt>
      <trkpt lat="48.71657" lon="1.73529">
        <ele>140.60000610352</ele>
        <time>2014-03-08T16:21:47.000Z</time>
      </trkpt>
      <trkpt lat="48.71645" lon="1.73535">
        <ele>141.19999694824</ele>
        <time>2014-03-08T16:21:55.000Z</time>
      </trkpt>
      <trkpt lat="48.71636" lon="1.73535">
        <ele>141.60000610352</ele>
        <time>2014-03-08T16:22:02.000Z</time>
      </trkpt>
      <trkpt lat="48.71626" lon="1.73537">
        <ele>142.19999694824</ele>
        <time>2014-03-08T16:22:09.000Z</time>
      </trkpt>
      <trkpt lat="48.71617" lon="1.7354">
        <ele>142.60000610352</ele>
        <time>2014-03-08T16:22:16.000Z</time>
      </trkpt>
      <trkpt lat="48.71609" lon="1.73541">
        <ele>143.19999694824</ele>
        <time>2014-03-08T16:22:22.000Z</time>
      </trkpt>
      <trkpt lat="48.716" lon="1.7354">
        <ele>143.60000610352</ele>
        <time>2014-03-08T16:22:27.000Z</time>
      </trkpt>
      <trkpt lat="48.7159" lon="1.73539">
        <ele>144</ele>
        <time>2014-03-08T16:22:32.000Z</time>
      </trkpt>
      <trkpt lat="48.71583" lon="1.73542">
        <ele>144.60000610352</ele>
        <time>2014-03-08T16:22:37.000Z</time>
      </trkpt>
      <trkpt lat="48.71573" lon="1.73542">
        <ele>145.60000610352</ele>
        <time>2014-03-08T16:22:44.000Z</time>
      </trkpt>
      <trkpt lat="48.71564" lon="1.73545">
        <ele>146.60000610352</ele>
        <time>2014-03-08T16:22:50.000Z</time>
      </trkpt>
      <trkpt lat="48.71559" lon="1.73548">
        <ele>147.19999694824</ele>
        <time>2014-03-08T16:22:54.000Z</time>
      </trkpt>
      <trkpt lat="48.71549" lon="1.73551">
        <ele>148.39999389648</ele>
        <time>2014-03-08T16:23:01.000Z</time>
      </trkpt>
      <trkpt lat="48.71543" lon="1.73552">
        <ele>149.19999694824</ele>
        <time>2014-03-08T16:23:06.000Z</time>
      </trkpt>
      <trkpt lat="48.71535" lon="1.73556">
        <ele>150</ele>
        <time>2014-03-08T16:23:12.000Z</time>
      </trkpt>
      <trkpt lat="48.71522" lon="1.73558">
        <ele>151.60000610352</ele>
        <time>2014-03-08T16:23:21.000Z</time>
      </trkpt>
      <trkpt lat="48.71519" lon="1.73557">
        <ele>152</ele>
        <time>2014-03-08T16:23:23.000Z</time>
      </trkpt>
      <trkpt lat="48.71514" lon="1.73557">
        <ele>152.60000610352</ele>
        <time>2014-03-08T16:23:27.000Z</time>
      </trkpt>
      <trkpt lat="48.71506" lon="1.73561">
        <ele>153.60000610352</ele>
        <time>2014-03-08T16:23:33.000Z</time>
      </trkpt>
      <trkpt lat="48.71495" lon="1.73563">
        <ele>154.80000305176</ele>
        <time>2014-03-08T16:23:40.000Z</time>
      </trkpt>
      <trkpt lat="48.71486" lon="1.73569">
        <ele>155.80000305176</ele>
        <time>2014-03-08T16:23:47.000Z</time>
      </trkpt>
      <trkpt lat="48.7148" lon="1.73573">
        <ele>156.60000610352</ele>
        <time>2014-03-08T16:23:52.000Z</time>
      </trkpt>
      <trkpt lat="48.71476" lon="1.73573">
        <ele>156.80000305176</ele>
        <time>2014-03-08T16:23:55.000Z</time>
      </trkpt>
      <trkpt lat="48.71475" lon="1.73573">
        <ele>157</ele>
        <time>2014-03-08T16:23:56.000Z</time>
      </trkpt>
      <trkpt lat="48.71466" lon="1.73577">
        <ele>157.80000305176</ele>
        <time>2014-03-08T16:24:03.000Z</time>
      </trkpt>
      <trkpt lat="48.71458" lon="1.73577">
        <ele>158.60000610352</ele>
        <time>2014-03-08T16:24:08.000Z</time>
      </trkpt>
      <trkpt lat="48.71452" lon="1.73582">
        <ele>159</ele>
        <time>2014-03-08T16:24:13.000Z</time>
      </trkpt>
      <trkpt lat="48.71439" lon="1.73584">
        <ele>160</ele>
        <time>2014-03-08T16:24:22.000Z</time>
      </trkpt>
      <trkpt lat="48.71428" lon="1.73581">
        <ele>161.19999694824</ele>
        <time>2014-03-08T16:24:29.000Z</time>
      </trkpt>
      <trkpt lat="48.71416" lon="1.73581">
        <ele>162.19999694824</ele>
        <time>2014-03-08T16:24:37.000Z</time>
      </trkpt>
      <trkpt lat="48.71409" lon="1.73581">
        <ele>162.80000305176</ele>
        <time>2014-03-08T16:24:42.000Z</time>
      </trkpt>
      <trkpt lat="48.714" lon="1.73581">
        <ele>164</ele>
        <time>2014-03-08T16:24:49.000Z</time>
      </trkpt>
      <trkpt lat="48.71392" lon="1.73581">
        <ele>164.80000305176</ele>
        <time>2014-03-08T16:24:56.000Z</time>
      </trkpt>
      <trkpt lat="48.71385" lon="1.73579">
        <ele>165.60000610352</ele>
        <time>2014-03-08T16:25:02.000Z</time>
      </trkpt>
      <trkpt lat="48.71378" lon="1.73573">
        <ele>166.80000305176</ele>
        <time>2014-03-08T16:25:07.000Z</time>
      </trkpt>
      <trkpt lat="48.71376" lon="1.73571">
        <ele>167.19999694824</ele>
        <time>2014-03-08T16:25:09.000Z</time>
      </trkpt>
      <trkpt lat="48.71369" lon="1.73563">
        <ele>168.39999389648</ele>
        <time>2014-03-08T16:25:16.000Z</time>
      </trkpt>
      <trkpt lat="48.71364" lon="1.73557">
        <ele>169.39999389648</ele>
        <time>2014-03-08T16:25:21.000Z</time>
      </trkpt>
      <trkpt lat="48.71361" lon="1.73552">
        <ele>170</ele>
        <time>2014-03-08T16:25:25.000Z</time>
      </trkpt>
      <trkpt lat="48.71353" lon="1.73546">
        <ele>171.39999389648</ele>
        <time>2014-03-08T16:25:31.000Z</time>
      </trkpt>
      <trkpt lat="48.71349" lon="1.73543">
        <ele>172</ele>
        <time>2014-03-08T16:25:35.000Z</time>
      </trkpt>
      <trkpt lat="48.71345" lon="1.73538">
        <ele>172.80000305176</ele>
        <time>2014-03-08T16:25:39.000Z</time>
      </trkpt>
      <trkpt lat="48.71339" lon="1.73533">
        <ele>173.80000305176</ele>
        <time>2014-03-08T16:25:46.000Z</time>
      </trkpt>
      <trkpt lat="48.71334" lon="1.73535">
        <ele>174.39999389648</ele>
        <time>2014-03-08T16:25:50.000Z</time>
      </trkpt>
      <trkpt lat="48.71328" lon="1.73541">
        <ele>174.60000610352</ele>
        <time>2014-03-08T16:25:55.000Z</time>
      </trkpt>
      <trkpt lat="48.7132" lon="1.73548">
        <ele>175.19999694824</ele>
        <time>2014-03-08T16:26:02.000Z</time>
      </trkpt>
      <trkpt lat="48.71312" lon="1.73557">
        <ele>175.80000305176</ele>
        <time>2014-03-08T16:26:09.000Z</time>
      </trkpt>
      <trkpt lat="48.71309" lon="1.73568">
        <ele>175.80000305176</ele>
        <time>2014-03-08T16:26:15.000Z</time>
      </trkpt>
      <trkpt lat="48.71308" lon="1.73576">
        <ele>175.60000610352</ele>
        <time>2014-03-08T16:26:20.000Z</time>
      </trkpt>
      <trkpt lat="48.71307" lon="1.73578">
        <ele>175.60000610352</ele>
        <time>2014-03-08T16:26:21.000Z</time>
      </trkpt>
      <trkpt lat="48.71304" lon="1.73591">
        <ele>175.60000610352</ele>
        <time>2014-03-08T16:26:28.000Z</time>
      </trkpt>
      <trkpt lat="48.71296" lon="1.73599">
        <ele>176.80000305176</ele>
        <time>2014-03-08T16:26:35.000Z</time>
      </trkpt>
      <trkpt lat="48.71288" lon="1.73607">
        <ele>178</ele>
        <time>2014-03-08T16:26:42.000Z</time>
      </trkpt>
      <trkpt lat="48.71285" lon="1.7361">
        <ele>178.39999389648</ele>
        <time>2014-03-08T16:26:45.000Z</time>
      </trkpt>
      <trkpt lat="48.71277" lon="1.73619">
        <ele>179.39999389648</ele>
        <time>2014-03-08T16:26:52.000Z</time>
      </trkpt>
      <trkpt lat="48.71276" lon="1.7362">
        <ele>179.60000610352</ele>
        <time>2014-03-08T16:26:53.000Z</time>
      </trkpt>
      <trkpt lat="48.71266" lon="1.73627">
        <ele>181.19999694824</ele>
        <time>2014-03-08T16:27:00.000Z</time>
      </trkpt>
      <trkpt lat="48.71258" lon="1.73632">
        <ele>182.39999389648</ele>
        <time>2014-03-08T16:27:06.000Z</time>
      </trkpt>
      <trkpt lat="48.71249" lon="1.73633">
        <ele>183.80000305176</ele>
        <time>2014-03-08T16:27:12.000Z</time>
      </trkpt>
      <trkpt lat="48.71243" lon="1.73633">
        <ele>183.60000610352</ele>
        <time>2014-03-08T16:27:17.000Z</time>
      </trkpt>
      <trkpt lat="48.71235" lon="1.73635">
        <ele>183.39999389648</ele>
        <time>2014-03-08T16:27:23.000Z</time>
      </trkpt>
      <trkpt lat="48.71227" lon="1.73635">
        <ele>183.19999694824</ele>
        <time>2014-03-08T16:27:29.000Z</time>
      </trkpt>
      <trkpt lat="48.71219" lon="1.7363">
        <ele>183</ele>
        <time>2014-03-08T16:27:35.000Z</time>
      </trkpt>
      <trkpt lat="48.71211" lon="1.73621">
        <ele>182.80000305176</ele>
        <time>2014-03-08T16:27:41.000Z</time>
      </trkpt>
      <trkpt lat="48.71204" lon="1.73617">
        <ele>182.60000610352</ele>
        <time>2014-03-08T16:27:46.000Z</time>
      </trkpt>
      <trkpt lat="48.71198" lon="1.73628">
        <ele>182.39999389648</ele>
        <time>2014-03-08T16:27:53.000Z</time>
      </trkpt>
      <trkpt lat="48.71197" lon="1.73629">
        <ele>182.39999389648</ele>
        <time>2014-03-08T16:27:54.000Z</time>
      </trkpt>
      <trkpt lat="48.71192" lon="1.7363">
        <ele>182.39999389648</ele>
        <time>2014-03-08T16:27:57.000Z</time>
      </trkpt>
      <trkpt lat="48.71184" lon="1.73636">
        <ele>182.19999694824</ele>
        <time>2014-03-08T16:28:03.000Z</time>
      </trkpt>
      <trkpt lat="48.71175" lon="1.73646">
        <ele>182.39999389648</ele>
        <time>2014-03-08T16:28:10.000Z</time>
      </trkpt>
      <trkpt lat="48.71164" lon="1.73653">
        <ele>182.39999389648</ele>
        <time>2014-03-08T16:28:18.000Z</time>
      </trkpt>
      <trkpt lat="48.71158" lon="1.7366">
        <ele>182.39999389648</ele>
        <time>2014-03-08T16:28:24.000Z</time>
      </trkpt>
      <trkpt lat="48.71147" lon="1.73673">
        <ele>182.19999694824</ele>
        <time>2014-03-08T16:28:33.000Z</time>
      </trkpt>
      <trkpt lat="48.71137" lon="1.73683">
        <ele>182</ele>
        <time>2014-03-08T16:28:40.000Z</time>
      </trkpt>
      <trkpt lat="48.71131" lon="1.7369">
        <ele>182</ele>
        <time>2014-03-08T16:28:45.000Z</time>
      </trkpt>
      <trkpt lat="48.71125" lon="1.73695">
        <ele>181.80000305176</ele>
        <time>2014-03-08T16:28:50.000Z</time>
      </trkpt>
      <trkpt lat="48.71118" lon="1.73702">
        <ele>181.80000305176</ele>
        <time>2014-03-08T16:28:55.000Z</time>
      </trkpt>
      <trkpt lat="48.71109" lon="1.73712">
        <ele>182</ele>
        <time>2014-03-08T16:29:02.000Z</time>
      </trkpt>
      <trkpt lat="48.711" lon="1.7372">
        <ele>182</ele>
        <time>2014-03-08T16:29:09.000Z</time>
      </trkpt>
      <trkpt lat="48.71093" lon="1.73727">
        <ele>182.19999694824</ele>
        <time>2014-03-08T16:29:14.000Z</time>
      </trkpt>
      <trkpt lat="48.71083" lon="1.73736">
        <ele>182.39999389648</ele>
        <time>2014-03-08T16:29:21.000Z</time>
      </trkpt>
      <trkpt lat="48.71075" lon="1.73741">
        <ele>182.39999389648</ele>
        <time>2014-03-08T16:29:27.000Z</time>
      </trkpt>
      <trkpt lat="48.71068" lon="1.73745">
        <ele>182.39999389648</ele>
        <time>2014-03-08T16:29:32.000Z</time>
      </trkpt>
      <trkpt lat="48.71058" lon="1.73752">
        <ele>182.39999389648</ele>
        <time>2014-03-08T16:29:38.000Z</time>
      </trkpt>
      <trkpt lat="48.71048" lon="1.7376">
        <ele>182.19999694824</ele>
        <time>2014-03-08T16:29:45.000Z</time>
      </trkpt>
      <trkpt lat="48.71041" lon="1.73772">
        <ele>182.19999694824</ele>
        <time>2014-03-08T16:29:52.000Z</time>
      </trkpt>
      <trkpt lat="48.71033" lon="1.73782">
        <ele>182</ele>
        <time>2014-03-08T16:29:59.000Z</time>
      </trkpt>
      <trkpt lat="48.71027" lon="1.73784">
        <ele>182</ele>
        <time>2014-03-08T16:30:05.000Z</time>
      </trkpt>
      <trkpt lat="48.71025" lon="1.73787">
        <ele>182</ele>
        <time>2014-03-08T16:30:07.000Z</time>
      </trkpt>
      <trkpt lat="48.71018" lon="1.73802">
        <ele>182.19999694824</ele>
        <time>2014-03-08T16:30:15.000Z</time>
      </trkpt>
      <trkpt lat="48.71011" lon="1.73813">
        <ele>182.39999389648</ele>
        <time>2014-03-08T16:30:21.000Z</time>
      </trkpt>
      <trkpt lat="48.71006" lon="1.73825">
        <ele>182.80000305176</ele>
        <time>2014-03-08T16:30:27.000Z</time>
      </trkpt>
      <trkpt lat="48.71005" lon="1.73832">
        <ele>183</ele>
        <time>2014-03-08T16:30:30.000Z</time>
      </trkpt>
      <trkpt lat="48.71" lon="1.7385">
        <ele>183.39999389648</ele>
        <time>2014-03-08T16:30:38.000Z</time>
      </trkpt>
      <trkpt lat="48.70992" lon="1.73859">
        <ele>183.39999389648</ele>
        <time>2014-03-08T16:30:44.000Z</time>
      </trkpt>
      <trkpt lat="48.7099" lon="1.7386">
        <ele>183.39999389648</ele>
        <time>2014-03-08T16:30:46.000Z</time>
      </trkpt>
      <trkpt lat="48.70987" lon="1.73866">
        <ele>183.39999389648</ele>
        <time>2014-03-08T16:30:50.000Z</time>
      </trkpt>
      <trkpt lat="48.70985" lon="1.73877">
        <ele>183.60000610352</ele>
        <time>2014-03-08T16:30:55.000Z</time>
      </trkpt>
      <trkpt lat="48.70978" lon="1.73891">
        <ele>183.80000305176</ele>
        <time>2014-03-08T16:31:02.000Z</time>
      </trkpt>
      <trkpt lat="48.70976" lon="1.73902">
        <ele>184</ele>
        <time>2014-03-08T16:31:07.000Z</time>
      </trkpt>
      <trkpt lat="48.70973" lon="1.73913">
        <ele>184.19999694824</ele>
        <time>2014-03-08T16:31:12.000Z</time>
      </trkpt>
      <trkpt lat="48.70973" lon="1.73927">
        <ele>184</ele>
        <time>2014-03-08T16:31:17.000Z</time>
      </trkpt>
      <trkpt lat="48.70971" lon="1.73934">
        <ele>184</ele>
        <time>2014-03-08T16:31:20.000Z</time>
      </trkpt>
      <trkpt lat="48.70969" lon="1.7394">
        <ele>183.80000305176</ele>
        <time>2014-03-08T16:31:23.000Z</time>
      </trkpt>
      <trkpt lat="48.70965" lon="1.73959">
        <ele>183.19999694824</ele>
        <time>2014-03-08T16:31:31.000Z</time>
      </trkpt>
      <trkpt lat="48.70961" lon="1.73975">
        <ele>183</ele>
        <time>2014-03-08T16:31:38.000Z</time>
      </trkpt>
      <trkpt lat="48.7096" lon="1.73979">
        <ele>182.80000305176</ele>
        <time>2014-03-08T16:31:40.000Z</time>
      </trkpt>
      <trkpt lat="48.70955" lon="1.73989">
        <ele>182.80000305176</ele>
        <time>2014-03-08T16:31:46.000Z</time>
      </trkpt>
      <trkpt lat="48.70951" lon="1.73998">
        <ele>182.60000610352</ele>
        <time>2014-03-08T16:31:51.000Z</time>
      </trkpt>
      <trkpt lat="48.70947" lon="1.7401">
        <ele>182.60000610352</ele>
        <time>2014-03-08T16:31:57.000Z</time>
      </trkpt>
      <trkpt lat="48.70941" lon="1.74028">
        <ele>182.80000305176</ele>
        <time>2014-03-08T16:32:05.000Z</time>
      </trkpt>
      <trkpt lat="48.70939" lon="1.74039">
        <ele>182.80000305176</ele>
        <time>2014-03-08T16:32:10.000Z</time>
      </trkpt>
      <trkpt lat="48.70938" lon="1.74042">
        <ele>182.80000305176</ele>
        <time>2014-03-08T16:32:14.000Z</time>
      </trkpt>
      <trkpt lat="48.70935" lon="1.74052">
        <ele>182.80000305176</ele>
        <time>2014-03-08T16:32:19.000Z</time>
      </trkpt>
      <trkpt lat="48.70933" lon="1.7406">
        <ele>182.80000305176</ele>
        <time>2014-03-08T16:32:23.000Z</time>
      </trkpt>
      <trkpt lat="48.70932" lon="1.74078">
        <ele>182.80000305176</ele>
        <time>2014-03-08T16:32:30.000Z</time>
      </trkpt>
      <trkpt lat="48.70932" lon="1.74098">
        <ele>182.80000305176</ele>
        <time>2014-03-08T16:32:38.000Z</time>
      </trkpt>
      <trkpt lat="48.70932" lon="1.74111">
        <ele>182.60000610352</ele>
        <time>2014-03-08T16:32:44.000Z</time>
      </trkpt>
      <trkpt lat="48.70928" lon="1.74121">
        <ele>182.80000305176</ele>
        <time>2014-03-08T16:32:49.000Z</time>
      </trkpt>
      <trkpt lat="48.70927" lon="1.74129">
        <ele>182.80000305176</ele>
        <time>2014-03-08T16:32:53.000Z</time>
      </trkpt>
      <trkpt lat="48.70924" lon="1.74139">
        <ele>182.80000305176</ele>
        <time>2014-03-08T16:32:59.000Z</time>
      </trkpt>
      <trkpt lat="48.70923" lon="1.74144">
        <ele>182.80000305176</ele>
        <time>2014-03-08T16:33:01.000Z</time>
      </trkpt>
      <trkpt lat="48.7092" lon="1.74158">
        <ele>182.80000305176</ele>
        <time>2014-03-08T16:33:08.000Z</time>
      </trkpt>
      <trkpt lat="48.70917" lon="1.74176">
        <ele>182.80000305176</ele>
        <time>2014-03-08T16:33:16.000Z</time>
      </trkpt>
      <trkpt lat="48.70918" lon="1.7418">
        <ele>182.60000610352</ele>
        <time>2014-03-08T16:33:18.000Z</time>
      </trkpt>
      <trkpt lat="48.70914" lon="1.742">
        <ele>182.19999694824</ele>
        <time>2014-03-08T16:33:26.000Z</time>
      </trkpt>
      <trkpt lat="48.70909" lon="1.74215">
        <ele>181.80000305176</ele>
        <time>2014-03-08T16:33:32.000Z</time>
      </trkpt>
      <trkpt lat="48.70906" lon="1.74229">
        <ele>181.39999389648</ele>
        <time>2014-03-08T16:33:39.000Z</time>
      </trkpt>
      <trkpt lat="48.70904" lon="1.74238">
        <ele>181.19999694824</ele>
        <time>2014-03-08T16:33:44.000Z</time>
      </trkpt>
      <trkpt lat="48.70904" lon="1.74238">
        <ele>181.19999694824</ele>
        <time>2014-03-08T16:33:45.000Z</time>
      </trkpt>
      <trkpt lat="48.70907" lon="1.74246">
        <ele>181</ele>
        <time>2014-03-08T16:33:50.000Z</time>
      </trkpt>
      <trkpt lat="48.70905" lon="1.7426">
        <ele>180.39999389648</ele>
        <time>2014-03-08T16:33:56.000Z</time>
      </trkpt>
      <trkpt lat="48.70902" lon="1.74275">
        <ele>179.39999389648</ele>
        <time>2014-03-08T16:34:02.000Z</time>
      </trkpt>
      <trkpt lat="48.70893" lon="1.74289">
        <ele>178.60000610352</ele>
        <time>2014-03-08T16:34:10.000Z</time>
      </trkpt>
      <trkpt lat="48.70886" lon="1.74298">
        <ele>178.19999694824</ele>
        <time>2014-03-08T16:34:16.000Z</time>
      </trkpt>
      <trkpt lat="48.70883" lon="1.74307">
        <ele>177.80000305176</ele>
        <time>2014-03-08T16:34:21.000Z</time>
      </trkpt>
      <trkpt lat="48.70877" lon="1.74317">
        <ele>177.19999694824</ele>
        <time>2014-03-08T16:34:26.000Z</time>
      </trkpt>
      <trkpt lat="48.70868" lon="1.74333">
        <ele>176.60000610352</ele>
        <time>2014-03-08T16:34:34.000Z</time>
      </trkpt>
      <trkpt lat="48.70861" lon="1.74347">
        <ele>176.60000610352</ele>
        <time>2014-03-08T16:34:41.000Z</time>
      </trkpt>
      <trkpt lat="48.70851" lon="1.74363">
        <ele>176.39999389648</ele>
        <time>2014-03-08T16:34:50.000Z</time>
      </trkpt>
      <trkpt lat="48.70842" lon="1.74375">
        <ele>176.39999389648</ele>
        <time>2014-03-08T16:34:58.000Z</time>
      </trkpt>
      <trkpt lat="48.7083" lon="1.7439">
        <ele>176.39999389648</ele>
        <time>2014-03-08T16:35:08.000Z</time>
      </trkpt>
      <trkpt lat="48.70819" lon="1.74401">
        <ele>176.60000610352</ele>
        <time>2014-03-08T16:35:17.000Z</time>
      </trkpt>
      <trkpt lat="48.70803" lon="1.74412">
        <ele>176.80000305176</ele>
        <time>2014-03-08T16:35:29.000Z</time>
      </trkpt>
      <trkpt lat="48.70789" lon="1.74422">
        <ele>177</ele>
        <time>2014-03-08T16:35:40.000Z</time>
      </trkpt>
      <trkpt lat="48.70771" lon="1.74432">
        <ele>177.39999389648</ele>
        <time>2014-03-08T16:35:53.000Z</time>
      </trkpt>
      <trkpt lat="48.70755" lon="1.74441">
        <ele>177.60000610352</ele>
        <time>2014-03-08T16:36:04.000Z</time>
      </trkpt>
      <trkpt lat="48.70755" lon="1.74441">
        <ele>177.60000610352</ele>
        <time>2014-03-08T16:36:07.000Z</time>
      </trkpt>
      <trkpt lat="48.70747" lon="1.74446">
        <ele>177.80000305176</ele>
        <time>2014-03-08T16:36:25.000Z</time>
      </trkpt>
      <trkpt lat="48.70735" lon="1.74456">
        <ele>178</ele>
        <time>2014-03-08T16:36:33.000Z</time>
      </trkpt>
      <trkpt lat="48.70734" lon="1.74457">
        <ele>178</ele>
        <time>2014-03-08T16:36:34.000Z</time>
      </trkpt>
      <trkpt lat="48.7073" lon="1.7447">
        <ele>178</ele>
        <time>2014-03-08T16:36:41.000Z</time>
      </trkpt>
      <trkpt lat="48.70731" lon="1.74482">
        <ele>177.80000305176</ele>
        <time>2014-03-08T16:36:48.000Z</time>
      </trkpt>
      <trkpt lat="48.70731" lon="1.74482">
        <ele>177.80000305176</ele>
        <time>2014-03-08T16:36:49.000Z</time>
      </trkpt>
      <trkpt lat="48.70732" lon="1.74484">
        <ele>177.80000305176</ele>
        <time>2014-03-08T16:36:52.000Z</time>
      </trkpt>
      <trkpt lat="48.70736" lon="1.74487">
        <ele>177.60000610352</ele>
        <time>2014-03-08T16:36:54.000Z</time>
      </trkpt>
      <trkpt lat="48.70741" lon="1.74489">
        <ele>177.39999389648</ele>
        <time>2014-03-08T16:36:57.000Z</time>
      </trkpt>
      <trkpt lat="48.70746" lon="1.74496">
        <ele>177.19999694824</ele>
        <time>2014-03-08T16:37:01.000Z</time>
      </trkpt>
      <trkpt lat="48.70749" lon="1.74502">
        <ele>177</ele>
        <time>2014-03-08T16:37:05.000Z</time>
      </trkpt>
      <trkpt lat="48.70757" lon="1.74509">
        <ele>177</ele>
        <time>2014-03-08T16:37:11.000Z</time>
      </trkpt>
      <trkpt lat="48.70758" lon="1.7451">
        <ele>177</ele>
        <time>2014-03-08T16:37:12.000Z</time>
      </trkpt>
      <trkpt lat="48.70763" lon="1.74515">
        <ele>176.80000305176</ele>
        <time>2014-03-08T16:37:16.000Z</time>
      </trkpt>
      <trkpt lat="48.70774" lon="1.74527">
        <ele>176.80000305176</ele>
        <time>2014-03-08T16:37:24.000Z</time>
      </trkpt>
      <trkpt lat="48.70777" lon="1.74531">
        <ele>176.60000610352</ele>
        <time>2014-03-08T16:37:27.000Z</time>
      </trkpt>
      <trkpt lat="48.70782" lon="1.74541">
        <ele>176.60000610352</ele>
        <time>2014-03-08T16:37:33.000Z</time>
      </trkpt>
      <trkpt lat="48.70786" lon="1.74545">
        <ele>176.60000610352</ele>
        <time>2014-03-08T16:37:36.000Z</time>
      </trkpt>
      <trkpt lat="48.70797" lon="1.74557">
        <ele>176.39999389648</ele>
        <time>2014-03-08T16:37:45.000Z</time>
      </trkpt>
      <trkpt lat="48.70804" lon="1.74565">
        <ele>176.39999389648</ele>
        <time>2014-03-08T16:37:51.000Z</time>
      </trkpt>
      <trkpt lat="48.70811" lon="1.74575">
        <ele>176.19999694824</ele>
        <time>2014-03-08T16:37:57.000Z</time>
      </trkpt>
      <trkpt lat="48.70821" lon="1.74587">
        <ele>176.19999694824</ele>
        <time>2014-03-08T16:38:05.000Z</time>
      </trkpt>
      <trkpt lat="48.70827" lon="1.74592">
        <ele>176</ele>
        <time>2014-03-08T16:38:09.000Z</time>
      </trkpt>
      <trkpt lat="48.70839" lon="1.74605">
        <ele>176</ele>
        <time>2014-03-08T16:38:18.000Z</time>
      </trkpt>
      <trkpt lat="48.70852" lon="1.74624">
        <ele>175.80000305176</ele>
        <time>2014-03-08T16:38:31.000Z</time>
      </trkpt>
      <trkpt lat="48.70861" lon="1.74635">
        <ele>175.80000305176</ele>
        <time>2014-03-08T16:38:38.000Z</time>
      </trkpt>
      <trkpt lat="48.70868" lon="1.74645">
        <ele>175.80000305176</ele>
        <time>2014-03-08T16:38:45.000Z</time>
      </trkpt>
      <trkpt lat="48.70875" lon="1.74654">
        <ele>176</ele>
        <time>2014-03-08T16:38:51.000Z</time>
      </trkpt>
      <trkpt lat="48.70879" lon="1.7466">
        <ele>176</ele>
        <time>2014-03-08T16:38:55.000Z</time>
      </trkpt>
      <trkpt lat="48.7089" lon="1.74672">
        <ele>176.19999694824</ele>
        <time>2014-03-08T16:39:04.000Z</time>
      </trkpt>
      <trkpt lat="48.70902" lon="1.74689">
        <ele>176.60000610352</ele>
        <time>2014-03-08T16:39:15.000Z</time>
      </trkpt>
      <trkpt lat="48.70911" lon="1.74701">
        <ele>176.80000305176</ele>
        <time>2014-03-08T16:39:23.000Z</time>
      </trkpt>
      <trkpt lat="48.70921" lon="1.74713">
        <ele>177.19999694824</ele>
        <time>2014-03-08T16:39:32.000Z</time>
      </trkpt>
      <trkpt lat="48.70934" lon="1.74729">
        <ele>177.60000610352</ele>
        <time>2014-03-08T16:39:43.000Z</time>
      </trkpt>
      <trkpt lat="48.70946" lon="1.74745">
        <ele>178</ele>
        <time>2014-03-08T16:39:54.000Z</time>
      </trkpt>
      <trkpt lat="48.70949" lon="1.74749">
        <ele>178</ele>
        <time>2014-03-08T16:39:57.000Z</time>
      </trkpt>
      <trkpt lat="48.70953" lon="1.74757">
        <ele>178</ele>
        <time>2014-03-08T16:40:02.000Z</time>
      </trkpt>
      <trkpt lat="48.70964" lon="1.74772">
        <ele>178.19999694824</ele>
        <time>2014-03-08T16:40:13.000Z</time>
      </trkpt>
      <trkpt lat="48.70974" lon="1.74783">
        <ele>178.19999694824</ele>
        <time>2014-03-08T16:40:21.000Z</time>
      </trkpt>
      <trkpt lat="48.70985" lon="1.74798">
        <ele>178.39999389648</ele>
        <time>2014-03-08T16:40:31.000Z</time>
      </trkpt>
      <trkpt lat="48.70992" lon="1.74811">
        <ele>178.60000610352</ele>
        <time>2014-03-08T16:40:40.000Z</time>
      </trkpt>
      <trkpt lat="48.70995" lon="1.74814">
        <ele>178.80000305176</ele>
        <time>2014-03-08T16:40:42.000Z</time>
      </trkpt>
      <trkpt lat="48.71002" lon="1.74825">
        <ele>178.80000305176</ele>
        <time>2014-03-08T16:40:49.000Z</time>
      </trkpt>
      <trkpt lat="48.7101" lon="1.74839">
        <ele>178.39999389648</ele>
        <time>2014-03-08T16:40:58.000Z</time>
      </trkpt>
      <trkpt lat="48.71008" lon="1.74854">
        <ele>178.60000610352</ele>
        <time>2014-03-08T16:41:06.000Z</time>
      </trkpt>
      <trkpt lat="48.71" lon="1.74865">
        <ele>179</ele>
        <time>2014-03-08T16:41:13.000Z</time>
      </trkpt>
      <trkpt lat="48.70993" lon="1.74876">
        <ele>178.80000305176</ele>
        <time>2014-03-08T16:41:19.000Z</time>
      </trkpt>
      <trkpt lat="48.70984" lon="1.74887">
        <ele>178.39999389648</ele>
        <time>2014-03-08T16:41:27.000Z</time>
      </trkpt>
      <trkpt lat="48.70974" lon="1.74902">
        <ele>178</ele>
        <time>2014-03-08T16:41:36.000Z</time>
      </trkpt>
      <trkpt lat="48.70968" lon="1.7491">
        <ele>177.60000610352</ele>
        <time>2014-03-08T16:41:40.000Z</time>
      </trkpt>
      <trkpt lat="48.70961" lon="1.74919">
        <ele>177.19999694824</ele>
        <time>2014-03-08T16:41:47.000Z</time>
      </trkpt>
      <trkpt lat="48.70955" lon="1.74927">
        <ele>176.80000305176</ele>
        <time>2014-03-08T16:41:52.000Z</time>
      </trkpt>
      <trkpt lat="48.70948" lon="1.74936">
        <ele>176.39999389648</ele>
        <time>2014-03-08T16:41:59.000Z</time>
      </trkpt>
      <trkpt lat="48.70939" lon="1.7495">
        <ele>176</ele>
        <time>2014-03-08T16:42:08.000Z</time>
      </trkpt>
      <trkpt lat="48.70934" lon="1.7496">
        <ele>175.80000305176</ele>
        <time>2014-03-08T16:42:13.000Z</time>
      </trkpt>
      <trkpt lat="48.70928" lon="1.74971">
        <ele>175.39999389648</ele>
        <time>2014-03-08T16:42:20.000Z</time>
      </trkpt>
      <trkpt lat="48.70919" lon="1.74984">
        <ele>175</ele>
        <time>2014-03-08T16:42:28.000Z</time>
      </trkpt>
      <trkpt lat="48.70917" lon="1.74984">
        <ele>175</ele>
        <time>2014-03-08T16:42:31.000Z</time>
      </trkpt>
    </trkseg>
  </trk>
</gpx>